Check out our new PWSWeather beta!
PWSweather.com
Personal Weather Stations
Station Observations
KD5LEN
Ktxnorth1, North Richland Hills, TX 76180

Ktxnorth1North Richland Hills, TX 76180

Lat: 32.885294, Lon: -97.236048

Elevation: 694

Station Type: Vantage Pro 2

http://www.atzer0.net/VWS/root/index.htm

High Low Average
Temperature 42.3°F5.7°C 32.8°F0.4°C 35.6°F2.0°C
Dew Point 36.7°F2.6°C 26.7°F-2.9°C 30.0°F-1.1°C
Winds 21.0 mph 33.8 kmh Calm Calm 8.0 mph WSW12.9 kmh WSW
Wind Gusts 26.0 mph41.8 kmh 3.0 mph4.8 kmh 16.0 mph25.7 kmh
Humidity 83% 76% 80%
Pressure 30.33 in1027.1 mb 30.04 in1017.3 mb -
Precipitation 0.00 in0.0 mm - -
Hour Temp Dew Point Humidity Winds Wind Gusts Pressure Precip Precip Rate Daily Precip Total
12:00 AM 42.3°F5.7°C 36.6°F2.6°C 80% 6.0 mph NNW9.7 kmh NNW 18.0 mph29.0 kmh 30.04 in1017.3 mb 0.00 in0.0 mm 0.00 in0.0 mm 0.00 in0.0 mm
12:02 AM 42.2°F5.7°C 36.5°F2.5°C 80% 5.0 mph N8.0 kmh N 11.0 mph17.7 kmh 30.04 in1017.3 mb 0.00 in0.0 mm 0.00 in0.0 mm 0.00 in0.0 mm
12:04 AM 42.1°F5.6°C 36.7°F2.6°C 81% 9.0 mph N14.5 kmh N 17.0 mph27.4 kmh 30.04 in1017.3 mb 0.00 in0.0 mm 0.00 in0.0 mm 0.00 in0.0 mm
12:06 AM 42.0°F5.6°C 36.6°F2.6°C 81% 8.0 mph NNE12.9 kmh NNE 17.0 mph27.4 kmh 30.04 in1017.3 mb 0.00 in0.0 mm 0.00 in0.0 mm 0.00 in0.0 mm
12:08 AM 42.0°F5.6°C 36.6°F2.6°C 81% 4.0 mph NNW6.4 kmh NNW 17.0 mph27.4 kmh 30.04 in1017.3 mb 0.00 in0.0 mm 0.00 in0.0 mm 0.00 in0.0 mm
12:10 AM 41.8°F5.4°C 36.4°F2.4°C 81% 11.0 mph N17.7 kmh N 18.0 mph29.0 kmh 30.04 in1017.3 mb 0.00 in0.0 mm 0.00 in0.0 mm 0.00 in0.0 mm
12:12 AM 41.8°F5.4°C 36.7°F2.6°C 82% 13.0 mph NNW20.9 kmh NNW 18.0 mph29.0 kmh 30.04 in1017.3 mb 0.00 in0.0 mm 0.00 in0.0 mm 0.00 in0.0 mm
12:14 AM 41.8°F5.4°C 36.4°F2.4°C 81% 6.0 mph NNW9.7 kmh NNW 18.0 mph29.0 kmh 30.04 in1017.3 mb 0.00 in0.0 mm 0.00 in0.0 mm 0.00 in0.0 mm
12:16 AM 41.7°F5.4°C 36.6°F2.6°C 82% 13.0 mph NNW20.9 kmh NNW 18.0 mph29.0 kmh 30.04 in1017.3 mb 0.00 in0.0 mm 0.00 in0.0 mm 0.00 in0.0 mm
12:18 AM 41.6°F5.3°C 36.5°F2.5°C 82% 4.0 mph N6.4 kmh N 18.0 mph29.0 kmh 30.04 in1017.3 mb 0.00 in0.0 mm 0.00 in0.0 mm 0.00 in0.0 mm
12:20 AM 41.6°F5.3°C 36.5°F2.5°C 82% 6.0 mph NNW9.7 kmh NNW 20.0 mph32.2 kmh 30.04 in1017.3 mb 0.00 in0.0 mm 0.00 in0.0 mm 0.00 in0.0 mm
12:22 AM 41.5°F5.3°C 36.4°F2.4°C 82% 14.0 mph NNW22.5 kmh NNW 20.0 mph32.2 kmh 30.04 in1017.3 mb 0.00 in0.0 mm 0.00 in0.0 mm 0.00 in0.0 mm
12:24 AM 41.5°F5.3°C 36.4°F2.4°C 82% 5.0 mph NE8.0 kmh NE 20.0 mph32.2 kmh 30.04 in1017.3 mb 0.00 in0.0 mm 0.00 in0.0 mm 0.00 in0.0 mm
12:26 AM 41.4°F5.2°C 36.3°F2.4°C 82% 4.0 mph NNE6.4 kmh NNE 20.0 mph32.2 kmh 30.05 in1017.6 mb 0.00 in0.0 mm 0.00 in0.0 mm 0.00 in0.0 mm
12:28 AM 41.3°F5.2°C 36.2°F2.3°C 82% 13.0 mph NNW20.9 kmh NNW 20.0 mph32.2 kmh 30.05 in1017.6 mb 0.00 in0.0 mm 0.00 in0.0 mm 0.00 in0.0 mm
12:30 AM 41.3°F5.2°C 36.2°F2.3°C 82% 10.0 mph NW16.1 kmh NW 10.0 mph16.1 kmh 30.05 in1017.6 mb 0.00 in0.0 mm 0.00 in0.0 mm 0.00 in0.0 mm
12:32 AM 41.2°F5.1°C 36.4°F2.4°C 83% 6.0 mph NNW9.7 kmh NNW 16.0 mph25.7 kmh 30.04 in1017.3 mb 0.00 in0.0 mm 0.00 in0.0 mm 0.00 in0.0 mm
12:34 AM 41.2°F5.1°C 36.4°F2.4°C 83% 9.0 mph NNE14.5 kmh NNE 17.0 mph27.4 kmh 30.04 in1017.3 mb 0.00 in0.0 mm 0.00 in0.0 mm 0.00 in0.0 mm
12:36 AM 41.1°F5.1°C 36.3°F2.4°C 83% 11.0 mph N17.7 kmh N 17.0 mph27.4 kmh 30.04 in1017.3 mb 0.00 in0.0 mm 0.00 in0.0 mm 0.00 in0.0 mm
12:38 AM 41.1°F5.1°C 36.3°F2.4°C 83% 6.0 mph N9.7 kmh N 17.0 mph27.4 kmh 30.05 in1017.6 mb 0.00 in0.0 mm 0.00 in0.0 mm 0.00 in0.0 mm
12:40 AM 41.0°F5.0°C 36.2°F2.3°C 83% 3.0 mph NNE4.8 kmh NNE 17.0 mph27.4 kmh 30.05 in1017.6 mb 0.00 in0.0 mm 0.00 in0.0 mm 0.00 in0.0 mm
12:42 AM 40.9°F4.9°C 36.1°F2.3°C 83% 13.0 mph N20.9 kmh N 17.0 mph27.4 kmh 30.05 in1017.6 mb 0.00 in0.0 mm 0.00 in0.0 mm 0.00 in0.0 mm
12:44 AM 40.9°F4.9°C 36.1°F2.3°C 83% 3.0 mph N4.8 kmh N 17.0 mph27.4 kmh 30.05 in1017.6 mb 0.00 in0.0 mm 0.00 in0.0 mm 0.00 in0.0 mm
12:46 AM 40.8°F4.9°C 36.1°F2.3°C 83% 4.0 mph NW6.4 kmh NW 17.0 mph27.4 kmh 30.05 in1017.6 mb 0.00 in0.0 mm 0.00 in0.0 mm 0.00 in0.0 mm
12:48 AM 40.7°F4.8°C 36.0°F2.2°C 83% 5.0 mph NNE8.0 kmh NNE 17.0 mph27.4 kmh 30.05 in1017.6 mb 0.00 in0.0 mm 0.00 in0.0 mm 0.00 in0.0 mm
12:50 AM 40.7°F4.8°C 36.0°F2.2°C 83% 6.0 mph NNW9.7 kmh NNW 17.0 mph27.4 kmh 30.05 in1017.6 mb 0.00 in0.0 mm 0.00 in0.0 mm 0.00 in0.0 mm
12:52 AM 40.7°F4.8°C 36.0°F2.2°C 83% 12.0 mph NNW19.3 kmh NNW 17.0 mph27.4 kmh 30.05 in1017.6 mb 0.00 in0.0 mm 0.00 in0.0 mm 0.00 in0.0 mm
12:54 AM 40.6°F4.8°C 35.9°F2.2°C 83% 10.0 mph NW16.1 kmh NW 17.0 mph27.4 kmh 30.05 in1017.6 mb 0.00 in0.0 mm 0.00 in0.0 mm 0.00 in0.0 mm
12:56 AM 40.5°F4.7°C 35.8°F2.1°C 83% 11.0 mph N17.7 kmh N 17.0 mph27.4 kmh 30.06 in1017.9 mb 0.00 in0.0 mm 0.00 in0.0 mm 0.00 in0.0 mm
12:58 AM 40.5°F4.7°C 35.8°F2.1°C 83% 14.0 mph N22.5 kmh N 17.0 mph27.4 kmh 30.05 in1017.6 mb 0.00 in0.0 mm 0.00 in0.0 mm 0.00 in0.0 mm
01:00 AM 40.5°F4.7°C 35.8°F2.1°C 83% 11.0 mph NNW17.7 kmh NNW 11.0 mph17.7 kmh 30.05 in1017.6 mb 0.00 in0.0 mm 0.00 in0.0 mm 0.00 in0.0 mm
01:02 AM 40.4°F4.7°C 35.7°F2.1°C 83% 7.0 mph NNE11.3 kmh NNE 16.0 mph25.7 kmh 30.06 in1017.9 mb 0.00 in0.0 mm 0.00 in0.0 mm 0.00 in0.0 mm
01:04 AM 40.4°F4.7°C 35.7°F2.1°C 83% 14.0 mph NW22.5 kmh NW 19.0 mph30.6 kmh 30.06 in1017.9 mb 0.00 in0.0 mm 0.00 in0.0 mm 0.00 in0.0 mm
01:06 AM 40.3°F4.6°C 35.6°F2.0°C 83% 13.0 mph NW20.9 kmh NW 19.0 mph30.6 kmh 30.06 in1017.9 mb 0.00 in0.0 mm 0.00 in0.0 mm 0.00 in0.0 mm
01:08 AM 40.2°F4.6°C 35.5°F1.9°C 83% 10.0 mph N16.1 kmh N 19.0 mph30.6 kmh 30.06 in1017.9 mb 0.00 in0.0 mm 0.00 in0.0 mm 0.00 in0.0 mm
01:10 AM 40.2°F4.6°C 35.5°F1.9°C 83% 14.0 mph NNW22.5 kmh NNW 20.0 mph32.2 kmh 30.06 in1017.9 mb 0.00 in0.0 mm 0.00 in0.0 mm 0.00 in0.0 mm
01:12 AM 40.2°F4.6°C 35.5°F1.9°C 83% 16.0 mph N25.7 kmh N 20.0 mph32.2 kmh 30.06 in1017.9 mb 0.00 in0.0 mm 0.00 in0.0 mm 0.00 in0.0 mm
01:14 AM 40.1°F4.5°C 35.4°F1.9°C 83% 9.0 mph N14.5 kmh N 20.0 mph32.2 kmh 30.06 in1017.9 mb 0.00 in0.0 mm 0.00 in0.0 mm 0.00 in0.0 mm
01:16 AM 40.1°F4.5°C 35.4°F1.9°C 83% 15.0 mph N24.1 kmh N 20.0 mph32.2 kmh 30.07 in1018.3 mb 0.00 in0.0 mm 0.00 in0.0 mm 0.00 in0.0 mm
01:18 AM 39.9°F4.4°C 35.2°F1.8°C 83% 12.0 mph N19.3 kmh N 20.0 mph32.2 kmh 30.06 in1017.9 mb 0.00 in0.0 mm 0.00 in0.0 mm 0.00 in0.0 mm
01:20 AM 39.9°F4.4°C 35.2°F1.8°C 83% 10.0 mph N16.1 kmh N 20.0 mph32.2 kmh 30.06 in1017.9 mb 0.00 in0.0 mm 0.00 in0.0 mm 0.00 in0.0 mm
01:22 AM 39.8°F4.3°C 35.1°F1.7°C 83% 11.0 mph NE17.7 kmh NE 20.0 mph32.2 kmh 30.07 in1018.3 mb 0.00 in0.0 mm 0.00 in0.0 mm 0.00 in0.0 mm
01:24 AM 39.7°F4.3°C 35.0°F1.7°C 83% 13.0 mph N20.9 kmh N 20.0 mph32.2 kmh 30.07 in1018.3 mb 0.00 in0.0 mm 0.00 in0.0 mm 0.00 in0.0 mm
01:26 AM 39.6°F4.2°C 34.9°F1.6°C 83% 8.0 mph NNE12.9 kmh NNE 20.0 mph32.2 kmh 30.07 in1018.3 mb 0.00 in0.0 mm 0.00 in0.0 mm 0.00 in0.0 mm
01:28 AM 39.6°F4.2°C 34.9°F1.6°C 83% 12.0 mph N19.3 kmh N 20.0 mph32.2 kmh 30.07 in1018.3 mb 0.00 in0.0 mm 0.00 in0.0 mm 0.00 in0.0 mm
01:30 AM 39.5°F4.2°C 34.8°F1.6°C 83% 11.0 mph NW17.7 kmh NW 11.0 mph17.7 kmh 30.07 in1018.3 mb 0.00 in0.0 mm 0.00 in0.0 mm 0.00 in0.0 mm
01:32 AM 39.5°F4.2°C 34.8°F1.6°C 83% 16.0 mph NNW25.7 kmh NNW 18.0 mph29.0 kmh 30.07 in1018.3 mb 0.00 in0.0 mm 0.00 in0.0 mm 0.00 in0.0 mm
01:34 AM 39.4°F4.1°C 34.7°F1.5°C 83% 9.0 mph NNW14.5 kmh NNW 21.0 mph33.8 kmh 30.08 in1018.6 mb 0.00 in0.0 mm 0.00 in0.0 mm 0.00 in0.0 mm
01:36 AM 39.3°F4.1°C 34.6°F1.4°C 83% 5.0 mph N8.0 kmh N 21.0 mph33.8 kmh 30.07 in1018.3 mb 0.00 in0.0 mm 0.00 in0.0 mm 0.00 in0.0 mm
01:38 AM 39.3°F4.1°C 34.6°F1.4°C 83% 14.0 mph N22.5 kmh N 21.0 mph33.8 kmh 30.07 in1018.3 mb 0.00 in0.0 mm 0.00 in0.0 mm 0.00 in0.0 mm
01:40 AM 39.3°F4.1°C 34.6°F1.4°C 83% 5.0 mph N8.0 kmh N 21.0 mph33.8 kmh 30.08 in1018.6 mb 0.00 in0.0 mm 0.00 in0.0 mm 0.00 in0.0 mm
01:42 AM 39.3°F4.1°C 34.6°F1.4°C 83% 9.0 mph N14.5 kmh N 21.0 mph33.8 kmh 30.08 in1018.6 mb 0.00 in0.0 mm 0.00 in0.0 mm 0.00 in0.0 mm
01:44 AM 39.3°F4.1°C 34.6°F1.4°C 83% 11.0 mph NW17.7 kmh NW 21.0 mph33.8 kmh 30.08 in1018.6 mb 0.00 in0.0 mm 0.00 in0.0 mm 0.00 in0.0 mm
01:46 AM 39.3°F4.1°C 34.6°F1.4°C 83% 7.0 mph NE11.3 kmh NE 21.0 mph33.8 kmh 30.08 in1018.6 mb 0.00 in0.0 mm 0.00 in0.0 mm 0.00 in0.0 mm
01:48 AM 39.4°F4.1°C 34.7°F1.5°C 83% 12.0 mph NNW19.3 kmh NNW 21.0 mph33.8 kmh 30.08 in1018.6 mb 0.00 in0.0 mm 0.00 in0.0 mm 0.00 in0.0 mm
01:50 AM 39.4°F4.1°C 34.7°F1.5°C 83% 18.0 mph N29.0 kmh N 21.0 mph33.8 kmh 30.08 in1018.6 mb 0.00 in0.0 mm 0.00 in0.0 mm 0.00 in0.0 mm
01:52 AM 39.5°F4.2°C 34.8°F1.6°C 83% 8.0 mph N12.9 kmh N 21.0 mph33.8 kmh 30.08 in1018.6 mb 0.00 in0.0 mm 0.00 in0.0 mm 0.00 in0.0 mm
01:54 AM 39.5°F4.2°C 34.8°F1.6°C 83% 4.0 mph NW6.4 kmh NW 21.0 mph33.8 kmh 30.08 in1018.6 mb 0.00 in0.0 mm 0.00 in0.0 mm 0.00 in0.0 mm
01:56 AM 39.5°F4.2°C 34.8°F1.6°C 83% 12.0 mph NNW19.3 kmh NNW 21.0 mph33.8 kmh 30.08 in1018.6 mb 0.00 in0.0 mm 0.00 in0.0 mm 0.00 in0.0 mm
01:58 AM 39.6°F4.2°C 34.9°F1.6°C 83% 9.0 mph NNW14.5 kmh NNW 21.0 mph33.8 kmh 30.08 in1018.6 mb 0.00 in0.0 mm 0.00 in0.0 mm 0.00 in0.0 mm
02:00 AM 39.6°F4.2°C 34.9°F1.6°C 83% 8.0 mph NNE12.9 kmh NNE 8.0 mph12.9 kmh 30.08 in1018.6 mb 0.00 in0.0 mm 0.00 in0.0 mm 0.00 in0.0 mm
02:02 AM 39.5°F4.2°C 34.8°F1.6°C 83% 8.0 mph N12.9 kmh N 16.0 mph25.7 kmh 30.08 in1018.6 mb 0.00 in0.0 mm 0.00 in0.0 mm 0.00 in0.0 mm
02:04 AM 39.5°F4.2°C 34.8°F1.6°C 83% 10.0 mph N16.1 kmh N 18.0 mph29.0 kmh 30.08 in1018.6 mb 0.00 in0.0 mm 0.00 in0.0 mm 0.00 in0.0 mm
02:06 AM 39.6°F4.2°C 34.9°F1.6°C 83% 3.0 mph N4.8 kmh N 18.0 mph29.0 kmh 30.08 in1018.6 mb 0.00 in0.0 mm 0.00 in0.0 mm 0.00 in0.0 mm
02:08 AM 39.5°F4.2°C 34.8°F1.6°C 83% 8.0 mph NW12.9 kmh NW 18.0 mph29.0 kmh 30.08 in1018.6 mb 0.00 in0.0 mm 0.00 in0.0 mm 0.00 in0.0 mm
02:10 AM 39.6°F4.2°C 34.9°F1.6°C 83% 5.0 mph NNW8.0 kmh NNW 18.0 mph29.0 kmh 30.08 in1018.6 mb 0.00 in0.0 mm 0.00 in0.0 mm 0.00 in0.0 mm
02:12 AM 39.5°F4.2°C 34.8°F1.6°C 83% 4.0 mph N6.4 kmh N 18.0 mph29.0 kmh 30.08 in1018.6 mb 0.00 in0.0 mm 0.00 in0.0 mm 0.00 in0.0 mm
02:14 AM 39.5°F4.2°C 34.8°F1.6°C 83% 13.0 mph N20.9 kmh N 18.0 mph29.0 kmh 30.08 in1018.6 mb 0.00 in0.0 mm 0.00 in0.0 mm 0.00 in0.0 mm
02:16 AM 39.5°F4.2°C 34.8°F1.6°C 83% 14.0 mph NW22.5 kmh NW 18.0 mph29.0 kmh 30.08 in1018.6 mb 0.00 in0.0 mm 0.00 in0.0 mm 0.00 in0.0 mm
02:18 AM 39.6°F4.2°C 34.9°F1.6°C 83% 11.0 mph NNE17.7 kmh NNE 18.0 mph29.0 kmh 30.09 in1019.0 mb 0.00 in0.0 mm 0.00 in0.0 mm 0.00 in0.0 mm
02:20 AM 39.6°F4.2°C 34.9°F1.6°C 83% 8.0 mph NE12.9 kmh NE 20.0 mph32.2 kmh 30.09 in1019.0 mb 0.00 in0.0 mm 0.00 in0.0 mm 0.00 in0.0 mm
02:22 AM 39.6°F4.2°C 34.9°F1.6°C 83% 10.0 mph N16.1 kmh N 20.0 mph32.2 kmh 30.09 in1019.0 mb 0.00 in0.0 mm 0.00 in0.0 mm 0.00 in0.0 mm
02:24 AM 39.6°F4.2°C 34.9°F1.6°C 83% 15.0 mph NNW24.1 kmh NNW 20.0 mph32.2 kmh 30.09 in1019.0 mb 0.00 in0.0 mm 0.00 in0.0 mm 0.00 in0.0 mm
02:26 AM 39.6°F4.2°C 34.9°F1.6°C 83% 6.0 mph N9.7 kmh N 21.0 mph33.8 kmh 30.09 in1019.0 mb 0.00 in0.0 mm 0.00 in0.0 mm 0.00 in0.0 mm
02:28 AM 39.6°F4.2°C 34.9°F1.6°C 83% 9.0 mph N14.5 kmh N 21.0 mph33.8 kmh 30.09 in1019.0 mb 0.00 in0.0 mm 0.00 in0.0 mm 0.00 in0.0 mm
02:30 AM 39.6°F4.2°C 34.9°F1.6°C 83% 19.0 mph NNW30.6 kmh NNW 19.0 mph30.6 kmh 30.10 in1019.3 mb 0.00 in0.0 mm 0.00 in0.0 mm 0.00 in0.0 mm
02:32 AM 39.6°F4.2°C 34.9°F1.6°C 83% 12.0 mph N19.3 kmh N 19.0 mph30.6 kmh 30.10 in1019.3 mb 0.00 in0.0 mm 0.00 in0.0 mm 0.00 in0.0 mm
02:34 AM 39.6°F4.2°C 34.9°F1.6°C 83% 11.0 mph NNW17.7 kmh NNW 24.0 mph38.6 kmh 30.10 in1019.3 mb 0.00 in0.0 mm 0.00 in0.0 mm 0.00 in0.0 mm
02:36 AM 39.6°F4.2°C 34.9°F1.6°C 83% 8.0 mph NW12.9 kmh NW 24.0 mph38.6 kmh 30.10 in1019.3 mb 0.00 in0.0 mm 0.00 in0.0 mm 0.00 in0.0 mm
02:38 AM 39.6°F4.2°C 34.9°F1.6°C 83% 3.0 mph N4.8 kmh N 24.0 mph38.6 kmh 30.10 in1019.3 mb 0.00 in0.0 mm 0.00 in0.0 mm 0.00 in0.0 mm
02:40 AM 39.5°F4.2°C 34.8°F1.6°C 83% 8.0 mph NNW12.9 kmh NNW 24.0 mph38.6 kmh 30.09 in1019.0 mb 0.00 in0.0 mm 0.00 in0.0 mm 0.00 in0.0 mm
02:42 AM 39.6°F4.2°C 34.9°F1.6°C 83% 21.0 mph NNE33.8 kmh NNE 24.0 mph38.6 kmh 30.10 in1019.3 mb 0.00 in0.0 mm 0.00 in0.0 mm 0.00 in0.0 mm
02:44 AM 39.4°F4.1°C 34.4°F1.3°C 82% 14.0 mph N22.5 kmh N 24.0 mph38.6 kmh 30.10 in1019.3 mb 0.00 in0.0 mm 0.00 in0.0 mm 0.00 in0.0 mm
02:46 AM 39.3°F4.1°C 34.3°F1.3°C 82% 15.0 mph NW24.1 kmh NW 24.0 mph38.6 kmh 30.10 in1019.3 mb 0.00 in0.0 mm 0.00 in0.0 mm 0.00 in0.0 mm
02:48 AM 39.2°F4.0°C 34.2°F1.2°C 82% 11.0 mph NNE17.7 kmh NNE 24.0 mph38.6 kmh 30.10 in1019.3 mb 0.00 in0.0 mm 0.00 in0.0 mm 0.00 in0.0 mm
02:50 AM 39.0°F3.9°C 34.0°F1.1°C 82% 10.0 mph N16.1 kmh N 26.0 mph41.8 kmh 30.10 in1019.3 mb 0.00 in0.0 mm 0.00 in0.0 mm 0.00 in0.0 mm
02:52 AM 39.0°F3.9°C 34.0°F1.1°C 82% 16.0 mph N25.7 kmh N 26.0 mph41.8 kmh 30.10 in1019.3 mb 0.00 in0.0 mm 0.00 in0.0 mm 0.00 in0.0 mm
02:54 AM 38.8°F3.8°C 33.8°F1.0°C 82% 4.0 mph NW6.4 kmh NW 26.0 mph41.8 kmh 30.10 in1019.3 mb 0.00 in0.0 mm 0.00 in0.0 mm 0.00 in0.0 mm
02:56 AM 38.8°F3.8°C 33.8°F1.0°C 82% 3.0 mph N4.8 kmh N 26.0 mph41.8 kmh 30.10 in1019.3 mb 0.00 in0.0 mm 0.00 in0.0 mm 0.00 in0.0 mm
02:58 AM 38.7°F3.7°C 33.7°F0.9°C 82% 5.0 mph NNW8.0 kmh NNW 26.0 mph41.8 kmh 30.10 in1019.3 mb 0.00 in0.0 mm 0.00 in0.0 mm 0.00 in0.0 mm
03:00 AM 38.7°F3.7°C 33.7°F0.9°C 82% 13.0 mph NW20.9 kmh NW 14.0 mph22.5 kmh 30.10 in1019.3 mb 0.00 in0.0 mm 0.00 in0.0 mm 0.00 in0.0 mm
03:02 AM 38.5°F3.6°C 33.5°F0.8°C 82% 12.0 mph N19.3 kmh N 22.0 mph35.4 kmh 30.10 in1019.3 mb 0.00 in0.0 mm 0.00 in0.0 mm 0.00 in0.0 mm
03:04 AM 38.5°F3.6°C 33.5°F0.8°C 82% 10.0 mph NNW16.1 kmh NNW 22.0 mph35.4 kmh 30.10 in1019.3 mb 0.00 in0.0 mm 0.00 in0.0 mm 0.00 in0.0 mm
03:06 AM 38.5°F3.6°C 33.5°F0.8°C 82% 7.0 mph NE11.3 kmh NE 22.0 mph35.4 kmh 30.10 in1019.3 mb 0.00 in0.0 mm 0.00 in0.0 mm 0.00 in0.0 mm
03:08 AM 38.5°F3.6°C 33.5°F0.8°C 82% 8.0 mph N12.9 kmh N 22.0 mph35.4 kmh 30.10 in1019.3 mb 0.00 in0.0 mm 0.00 in0.0 mm 0.00 in0.0 mm
03:10 AM 38.5°F3.6°C 33.5°F0.8°C 82% 16.0 mph N25.7 kmh N 22.0 mph35.4 kmh 30.11 in1019.6 mb 0.00 in0.0 mm 0.00 in0.0 mm 0.00 in0.0 mm
03:12 AM 38.5°F3.6°C 33.5°F0.8°C 82% 12.0 mph NW19.3 kmh NW 22.0 mph35.4 kmh 30.11 in1019.6 mb 0.00 in0.0 mm 0.00 in0.0 mm 0.00 in0.0 mm
03:14 AM 38.4°F3.6°C 33.4°F0.8°C 82% 9.0 mph NW14.5 kmh NW 22.0 mph35.4 kmh 30.11 in1019.6 mb 0.00 in0.0 mm 0.00 in0.0 mm 0.00 in0.0 mm
03:16 AM 38.4°F3.6°C 33.4°F0.8°C 82% 10.0 mph N16.1 kmh N 22.0 mph35.4 kmh 30.11 in1019.6 mb 0.00 in0.0 mm 0.00 in0.0 mm 0.00 in0.0 mm
03:18 AM 38.3°F3.5°C 33.3°F0.7°C 82% 5.0 mph NNE8.0 kmh NNE 22.0 mph35.4 kmh 30.11 in1019.6 mb 0.00 in0.0 mm 0.00 in0.0 mm 0.00 in0.0 mm
03:20 AM 38.3°F3.5°C 33.3°F0.7°C 82% 9.0 mph N14.5 kmh N 22.0 mph35.4 kmh 30.11 in1019.6 mb 0.00 in0.0 mm 0.00 in0.0 mm 0.00 in0.0 mm
03:22 AM 38.2°F3.4°C 33.2°F0.7°C 82% 10.0 mph NNW16.1 kmh NNW 22.0 mph35.4 kmh 30.11 in1019.6 mb 0.00 in0.0 mm 0.00 in0.0 mm 0.00 in0.0 mm
03:24 AM 38.1°F3.4°C 33.1°F0.6°C 82% 12.0 mph NW19.3 kmh NW 22.0 mph35.4 kmh 30.11 in1019.6 mb 0.00 in0.0 mm 0.00 in0.0 mm 0.00 in0.0 mm
03:26 AM 38.0°F3.3°C 33.0°F0.6°C 82% 12.0 mph NW19.3 kmh NW 22.0 mph35.4 kmh 30.11 in1019.6 mb 0.00 in0.0 mm 0.00 in0.0 mm 0.00 in0.0 mm
03:28 AM 37.9°F3.3°C 32.9°F0.5°C 82% 8.0 mph N12.9 kmh N 22.0 mph35.4 kmh 30.11 in1019.6 mb 0.00 in0.0 mm 0.00 in0.0 mm 0.00 in0.0 mm
03:30 AM 37.9°F3.3°C 32.9°F0.5°C 82% 19.0 mph NNW30.6 kmh NNW 19.0 mph30.6 kmh 30.11 in1019.6 mb 0.00 in0.0 mm 0.00 in0.0 mm 0.00 in0.0 mm
03:32 AM 37.8°F3.2°C 32.8°F0.4°C 82% 3.0 mph N4.8 kmh N 19.0 mph30.6 kmh 30.11 in1019.6 mb 0.00 in0.0 mm 0.00 in0.0 mm 0.00 in0.0 mm
03:34 AM 37.8°F3.2°C 32.8°F0.4°C 82% 17.0 mph NNW27.4 kmh NNW 19.0 mph30.6 kmh 30.11 in1019.6 mb 0.00 in0.0 mm 0.00 in0.0 mm 0.00 in0.0 mm
03:36 AM 37.8°F3.2°C 32.8°F0.4°C 82% 4.0 mph N6.4 kmh N 19.0 mph30.6 kmh 30.11 in1019.6 mb 0.00 in0.0 mm 0.00 in0.0 mm 0.00 in0.0 mm
03:38 AM 37.7°F3.2°C 32.7°F0.4°C 82% 12.0 mph NNW19.3 kmh NNW 19.0 mph30.6 kmh 30.11 in1019.6 mb 0.00 in0.0 mm 0.00 in0.0 mm 0.00 in0.0 mm
03:40 AM 37.7°F3.2°C 32.7°F0.4°C 82% 10.0 mph NNW16.1 kmh NNW 19.0 mph30.6 kmh 30.11 in1019.6 mb 0.00 in0.0 mm 0.00 in0.0 mm 0.00 in0.0 mm
03:42 AM 37.6°F3.1°C 32.6°F0.3°C 82% 11.0 mph NW17.7 kmh NW 19.0 mph30.6 kmh 30.11 in1019.6 mb 0.00 in0.0 mm 0.00 in0.0 mm 0.00 in0.0 mm
03:44 AM 37.6°F3.1°C 32.6°F0.3°C 82% 17.0 mph N27.4 kmh N 20.0 mph32.2 kmh 30.11 in1019.6 mb 0.00 in0.0 mm 0.00 in0.0 mm 0.00 in0.0 mm
03:46 AM 37.5°F3.1°C 32.5°F0.3°C 82% 13.0 mph N20.9 kmh N 20.0 mph32.2 kmh 30.11 in1019.6 mb 0.00 in0.0 mm 0.00 in0.0 mm 0.00 in0.0 mm
03:48 AM 37.4°F3.0°C 32.4°F0.2°C 82% 4.0 mph NNE6.4 kmh NNE 20.0 mph32.2 kmh 30.11 in1019.6 mb 0.00 in0.0 mm 0.00 in0.0 mm 0.00 in0.0 mm
03:50 AM 37.3°F2.9°C 32.3°F0.2°C 82% 11.0 mph NW17.7 kmh NW 20.0 mph32.2 kmh 30.11 in1019.6 mb 0.00 in0.0 mm 0.00 in0.0 mm 0.00 in0.0 mm
03:52 AM 37.3°F2.9°C 32.3°F0.2°C 82% 6.0 mph NE9.7 kmh NE 20.0 mph32.2 kmh 30.11 in1019.6 mb 0.00 in0.0 mm 0.00 in0.0 mm 0.00 in0.0 mm
03:54 AM 37.3°F2.9°C 32.3°F0.2°C 82% 15.0 mph NW24.1 kmh NW 20.0 mph32.2 kmh 30.11 in1019.6 mb 0.00 in0.0 mm 0.00 in0.0 mm 0.00 in0.0 mm
03:56 AM 37.2°F2.9°C 32.2°F0.1°C 82% 8.0 mph N12.9 kmh N 20.0 mph32.2 kmh 30.11 in1019.6 mb 0.00 in0.0 mm 0.00 in0.0 mm 0.00 in0.0 mm
03:58 AM 37.2°F2.9°C 32.2°F0.1°C 82% 5.0 mph NW8.0 kmh NW 20.0 mph32.2 kmh 30.11 in1019.6 mb 0.00 in0.0 mm 0.00 in0.0 mm 0.00 in0.0 mm
04:00 AM 37.1°F2.8°C 32.1°F0.1°C 82% 5.0 mph NNW8.0 kmh NNW 7.0 mph11.3 kmh 30.11 in1019.6 mb 0.00 in0.0 mm 0.00 in0.0 mm 0.00 in0.0 mm
04:02 AM 37.1°F2.8°C 32.1°F0.1°C 82% 9.0 mph NE14.5 kmh NE 14.0 mph22.5 kmh 30.11 in1019.6 mb 0.00 in0.0 mm 0.00 in0.0 mm 0.00 in0.0 mm
04:04 AM 37.1°F2.8°C 32.1°F0.1°C 82% 14.0 mph NNW22.5 kmh NNW 15.0 mph24.1 kmh 30.11 in1019.6 mb 0.00 in0.0 mm 0.00 in0.0 mm 0.00 in0.0 mm
04:06 AM 37.1°F2.8°C 32.1°F0.1°C 82% 8.0 mph N12.9 kmh N 17.0 mph27.4 kmh 30.11 in1019.6 mb 0.00 in0.0 mm 0.00 in0.0 mm 0.00 in0.0 mm
04:08 AM 37.0°F2.8°C 32.0°F0.0°C 82% 12.0 mph NNW19.3 kmh NNW 17.0 mph27.4 kmh 30.11 in1019.6 mb 0.00 in0.0 mm 0.00 in0.0 mm 0.00 in0.0 mm
04:10 AM 37.0°F2.8°C 32.0°F0.0°C 82% 9.0 mph NNW14.5 kmh NNW 18.0 mph29.0 kmh 30.11 in1019.6 mb 0.00 in0.0 mm 0.00 in0.0 mm 0.00 in0.0 mm
04:12 AM 37.0°F2.8°C 32.0°F0.0°C 82% 5.0 mph N8.0 kmh N 18.0 mph29.0 kmh 30.11 in1019.6 mb 0.00 in0.0 mm 0.00 in0.0 mm 0.00 in0.0 mm
04:14 AM 37.0°F2.8°C 32.3°F0.2°C 83% 15.0 mph NNW24.1 kmh NNW 18.0 mph29.0 kmh 30.11 in1019.6 mb 0.00 in0.0 mm 0.00 in0.0 mm 0.00 in0.0 mm
04:16 AM 36.9°F2.7°C 31.9°F-0.1°C 82% 5.0 mph NNW8.0 kmh NNW 18.0 mph29.0 kmh 30.11 in1019.6 mb 0.00 in0.0 mm 0.00 in0.0 mm 0.00 in0.0 mm
04:18 AM 36.9°F2.7°C 31.9°F-0.1°C 82% 12.0 mph NNW19.3 kmh NNW 18.0 mph29.0 kmh 30.11 in1019.6 mb 0.00 in0.0 mm 0.00 in0.0 mm 0.00 in0.0 mm
04:20 AM 37.0°F2.8°C 32.0°F0.0°C 82% 6.0 mph NNW9.7 kmh NNW 18.0 mph29.0 kmh 30.11 in1019.6 mb 0.00 in0.0 mm 0.00 in0.0 mm 0.00 in0.0 mm
04:22 AM 36.9°F2.7°C 32.2°F0.1°C 83% 13.0 mph N20.9 kmh N 18.0 mph29.0 kmh 30.11 in1019.6 mb 0.00 in0.0 mm 0.00 in0.0 mm 0.00 in0.0 mm
04:24 AM 36.9°F2.7°C 32.2°F0.1°C 83% 9.0 mph NNE14.5 kmh NNE 18.0 mph29.0 kmh 30.11 in1019.6 mb 0.00 in0.0 mm 0.00 in0.0 mm 0.00 in0.0 mm
04:26 AM 36.9°F2.7°C 31.9°F-0.1°C 82% 9.0 mph NNW14.5 kmh NNW 18.0 mph29.0 kmh 30.11 in1019.6 mb 0.00 in0.0 mm 0.00 in0.0 mm 0.00 in0.0 mm
04:28 AM 36.9°F2.7°C 32.2°F0.1°C 83% 12.0 mph NNW19.3 kmh NNW 18.0 mph29.0 kmh 30.11 in1019.6 mb 0.00 in0.0 mm 0.00 in0.0 mm 0.00 in0.0 mm
04:30 AM 36.9°F2.7°C 32.2°F0.1°C 83% 19.0 mph NNW30.6 kmh NNW 19.0 mph30.6 kmh 30.11 in1019.6 mb 0.00 in0.0 mm 0.00 in0.0 mm 0.00 in0.0 mm
04:32 AM 36.9°F2.7°C 31.9°F-0.1°C 82% 9.0 mph NNE14.5 kmh NNE 19.0 mph30.6 kmh 30.11 in1019.6 mb 0.00 in0.0 mm 0.00 in0.0 mm 0.00 in0.0 mm
04:34 AM 36.8°F2.7°C 31.8°F-0.1°C 82% 14.0 mph N22.5 kmh N 19.0 mph30.6 kmh 30.12 in1020.0 mb 0.00 in0.0 mm 0.00 in0.0 mm 0.00 in0.0 mm
04:36 AM 36.8°F2.7°C 31.8°F-0.1°C 82% 13.0 mph NNW20.9 kmh NNW 19.0 mph30.6 kmh 30.12 in1020.0 mb 0.00 in0.0 mm 0.00 in0.0 mm 0.00 in0.0 mm
04:38 AM 36.8°F2.7°C 31.8°F-0.1°C 82% 10.0 mph NNW16.1 kmh NNW 19.0 mph30.6 kmh 30.12 in1020.0 mb 0.00 in0.0 mm 0.00 in0.0 mm 0.00 in0.0 mm
04:40 AM 36.8°F2.7°C 32.1°F0.1°C 83% 5.0 mph N8.0 kmh N 19.0 mph30.6 kmh 30.12 in1020.0 mb 0.00 in0.0 mm 0.00 in0.0 mm 0.00 in0.0 mm
04:42 AM 36.8°F2.7°C 32.1°F0.1°C 83% 6.0 mph NNW9.7 kmh NNW 19.0 mph30.6 kmh 30.13 in1020.3 mb 0.00 in0.0 mm 0.00 in0.0 mm 0.00 in0.0 mm
04:44 AM 36.8°F2.7°C 32.1°F0.1°C 83% 9.0 mph NNE14.5 kmh NNE 19.0 mph30.6 kmh 30.13 in1020.3 mb 0.00 in0.0 mm 0.00 in0.0 mm 0.00 in0.0 mm
04:46 AM 36.8°F2.7°C 32.1°F0.1°C 83% 15.0 mph NNW24.1 kmh NNW 19.0 mph30.6 kmh 30.13 in1020.3 mb 0.00 in0.0 mm 0.00 in0.0 mm 0.00 in0.0 mm
04:48 AM 36.8°F2.7°C 32.1°F0.1°C 83% 15.0 mph NNW24.1 kmh NNW 19.0 mph30.6 kmh 30.12 in1020.0 mb 0.00 in0.0 mm 0.00 in0.0 mm 0.00 in0.0 mm
04:50 AM 36.8°F2.7°C 32.1°F0.1°C 83% 4.0 mph NW6.4 kmh NW 19.0 mph30.6 kmh 30.13 in1020.3 mb 0.00 in0.0 mm 0.00 in0.0 mm 0.00 in0.0 mm
04:52 AM 36.8°F2.7°C 32.1°F0.1°C 83% 9.0 mph N14.5 kmh N 19.0 mph30.6 kmh 30.13 in1020.3 mb 0.00 in0.0 mm 0.00 in0.0 mm 0.00 in0.0 mm
04:54 AM 36.7°F2.6°C 32.0°F0.0°C 83% 8.0 mph NNW12.9 kmh NNW 19.0 mph30.6 kmh 30.13 in1020.3 mb 0.00 in0.0 mm 0.00 in0.0 mm 0.00 in0.0 mm
04:56 AM 36.8°F2.7°C 32.1°F0.1°C 83% 13.0 mph NNE20.9 kmh NNE 19.0 mph30.6 kmh 30.14 in1020.7 mb 0.00 in0.0 mm 0.00 in0.0 mm 0.00 in0.0 mm
04:58 AM 36.7°F2.6°C 32.0°F0.0°C 83% 12.0 mph NE19.3 kmh NE 19.0 mph30.6 kmh 30.14 in1020.7 mb 0.00 in0.0 mm 0.00 in0.0 mm 0.00 in0.0 mm
05:00 AM 36.7°F2.6°C 32.0°F0.0°C 83% 5.0 mph NNW8.0 kmh NNW 5.0 mph8.0 kmh 30.13 in1020.3 mb 0.00 in0.0 mm 0.00 in0.0 mm 0.00 in0.0 mm
05:02 AM 36.7°F2.6°C 32.0°F0.0°C 83% 11.0 mph NNW17.7 kmh NNW 15.0 mph24.1 kmh 30.14 in1020.7 mb 0.00 in0.0 mm 0.00 in0.0 mm 0.00 in0.0 mm
05:04 AM 36.6°F2.6°C 31.9°F-0.1°C 83% 13.0 mph NNW20.9 kmh NNW 15.0 mph24.1 kmh 30.14 in1020.7 mb 0.00 in0.0 mm 0.00 in0.0 mm 0.00 in0.0 mm
05:06 AM 36.6°F2.6°C 31.9°F-0.1°C 83% 10.0 mph NNW16.1 kmh NNW 15.0 mph24.1 kmh 30.14 in1020.7 mb 0.00 in0.0 mm 0.00 in0.0 mm 0.00 in0.0 mm
05:08 AM 36.6°F2.6°C 31.9°F-0.1°C 83% 5.0 mph NNW8.0 kmh NNW 15.0 mph24.1 kmh 30.13 in1020.3 mb 0.00 in0.0 mm 0.00 in0.0 mm 0.00 in0.0 mm
05:10 AM 36.6°F2.6°C 31.9°F-0.1°C 83% 12.0 mph NNW19.3 kmh NNW 15.0 mph24.1 kmh 30.13 in1020.3 mb 0.00 in0.0 mm 0.00 in0.0 mm 0.00 in0.0 mm
05:12 AM 36.5°F2.5°C 31.8°F-0.1°C 83% 8.0 mph NW12.9 kmh NW 15.0 mph24.1 kmh 30.14 in1020.7 mb 0.00 in0.0 mm 0.00 in0.0 mm 0.00 in0.0 mm
05:14 AM 36.5°F2.5°C 31.8°F-0.1°C 83% 8.0 mph NNW12.9 kmh NNW 15.0 mph24.1 kmh 30.14 in1020.7 mb 0.00 in0.0 mm 0.00 in0.0 mm 0.00 in0.0 mm
05:16 AM 36.4°F2.4°C 31.7°F-0.2°C 83% 4.0 mph N6.4 kmh N 15.0 mph24.1 kmh 30.13 in1020.3 mb 0.00 in0.0 mm 0.00 in0.0 mm 0.00 in0.0 mm
05:18 AM 36.4°F2.4°C 31.7°F-0.2°C 83% 10.0 mph NW16.1 kmh NW 16.0 mph25.7 kmh 30.14 in1020.7 mb 0.00 in0.0 mm 0.00 in0.0 mm 0.00 in0.0 mm
05:20 AM 36.4°F2.4°C 31.7°F-0.2°C 83% 10.0 mph N16.1 kmh N 16.0 mph25.7 kmh 30.14 in1020.7 mb 0.00 in0.0 mm 0.00 in0.0 mm 0.00 in0.0 mm
05:22 AM 36.3°F2.4°C 31.6°F-0.2°C 83% 6.0 mph NW9.7 kmh NW 16.0 mph25.7 kmh 30.14 in1020.7 mb 0.00 in0.0 mm 0.00 in0.0 mm 0.00 in0.0 mm
05:24 AM 36.4°F2.4°C 31.7°F-0.2°C 83% 11.0 mph NNW17.7 kmh NNW 16.0 mph25.7 kmh 30.14 in1020.7 mb 0.00 in0.0 mm 0.00 in0.0 mm 0.00 in0.0 mm
05:30 AM 36.3°F2.4°C 31.6°F-0.2°C 83% 14.0 mph N22.5 kmh N 14.0 mph22.5 kmh 30.14 in1020.7 mb 0.00 in0.0 mm 0.00 in0.0 mm 0.00 in0.0 mm
05:32 AM 36.3°F2.4°C 31.3°F-0.4°C 82% 5.0 mph NNW8.0 kmh NNW 14.0 mph22.5 kmh 30.15 in1021.0 mb 0.00 in0.0 mm 0.00 in0.0 mm 0.00 in0.0 mm
05:34 AM 36.3°F2.4°C 31.6°F-0.2°C 83% 4.0 mph N6.4 kmh N 14.0 mph22.5 kmh 30.15 in1021.0 mb 0.00 in0.0 mm 0.00 in0.0 mm 0.00 in0.0 mm
05:36 AM 36.3°F2.4°C 31.6°F-0.2°C 83% 5.0 mph NNW8.0 kmh NNW 14.0 mph22.5 kmh 30.15 in1021.0 mb 0.00 in0.0 mm 0.00 in0.0 mm 0.00 in0.0 mm
05:38 AM 36.3°F2.4°C 31.6°F-0.2°C 83% 11.0 mph NNW17.7 kmh NNW 15.0 mph24.1 kmh 30.15 in1021.0 mb 0.00 in0.0 mm 0.00 in0.0 mm 0.00 in0.0 mm
05:40 AM 36.4°F2.4°C 31.7°F-0.2°C 83% 12.0 mph N19.3 kmh N 15.0 mph24.1 kmh 30.15 in1021.0 mb 0.00 in0.0 mm 0.00 in0.0 mm 0.00 in0.0 mm
05:42 AM 36.3°F2.4°C 31.3°F-0.4°C 82% 10.0 mph NNW16.1 kmh NNW 15.0 mph24.1 kmh 30.16 in1021.3 mb 0.00 in0.0 mm 0.00 in0.0 mm 0.00 in0.0 mm
05:44 AM 36.4°F2.4°C 31.4°F-0.3°C 82% 8.0 mph N12.9 kmh N 15.0 mph24.1 kmh 30.15 in1021.0 mb 0.00 in0.0 mm 0.00 in0.0 mm 0.00 in0.0 mm
05:46 AM 36.4°F2.4°C 31.4°F-0.3°C 82% 5.0 mph N8.0 kmh N 15.0 mph24.1 kmh 30.16 in1021.3 mb 0.00 in0.0 mm 0.00 in0.0 mm 0.00 in0.0 mm
05:48 AM 36.4°F2.4°C 31.4°F-0.3°C 82% 5.0 mph N8.0 kmh N 15.0 mph24.1 kmh 30.16 in1021.3 mb 0.00 in0.0 mm 0.00 in0.0 mm 0.00 in0.0 mm
05:50 AM 36.4°F2.4°C 31.4°F-0.3°C 82% 5.0 mph NNW8.0 kmh NNW 18.0 mph29.0 kmh 30.16 in1021.3 mb 0.00 in0.0 mm 0.00 in0.0 mm 0.00 in0.0 mm
05:52 AM 36.4°F2.4°C 31.4°F-0.3°C 82% 9.0 mph NW14.5 kmh NW 18.0 mph29.0 kmh 30.16 in1021.3 mb 0.00 in0.0 mm 0.00 in0.0 mm 0.00 in0.0 mm
05:54 AM 36.4°F2.4°C 31.4°F-0.3°C 82% 10.0 mph N16.1 kmh N 18.0 mph29.0 kmh 30.16 in1021.3 mb 0.00 in0.0 mm 0.00 in0.0 mm 0.00 in0.0 mm
05:56 AM 36.3°F2.4°C 31.3°F-0.4°C 82% 8.0 mph NNW12.9 kmh NNW 18.0 mph29.0 kmh 30.16 in1021.3 mb 0.00 in0.0 mm 0.00 in0.0 mm 0.00 in0.0 mm
05:58 AM 36.3°F2.4°C 31.3°F-0.4°C 82% 6.0 mph N9.7 kmh N 19.0 mph30.6 kmh 30.16 in1021.3 mb 0.00 in0.0 mm 0.00 in0.0 mm 0.00 in0.0 mm
06:00 AM 36.3°F2.4°C 31.3°F-0.4°C 82% 11.0 mph N17.7 kmh N 11.0 mph17.7 kmh 30.16 in1021.3 mb 0.00 in0.0 mm 0.00 in0.0 mm 0.00 in0.0 mm
06:02 AM 36.3°F2.4°C 31.3°F-0.4°C 82% 15.0 mph N24.1 kmh N 16.0 mph25.7 kmh 30.16 in1021.3 mb 0.00 in0.0 mm 0.00 in0.0 mm 0.00 in0.0 mm
06:04 AM 36.2°F2.3°C 31.2°F-0.4°C 82% 13.0 mph N20.9 kmh N 16.0 mph25.7 kmh 30.16 in1021.3 mb 0.00 in0.0 mm 0.00 in0.0 mm 0.00 in0.0 mm
06:06 AM 36.3°F2.4°C 31.3°F-0.4°C 82% 8.0 mph N12.9 kmh N 16.0 mph25.7 kmh 30.16 in1021.3 mb 0.00 in0.0 mm 0.00 in0.0 mm 0.00 in0.0 mm
06:08 AM 36.2°F2.3°C 31.2°F-0.4°C 82% 8.0 mph N12.9 kmh N 16.0 mph25.7 kmh 30.16 in1021.3 mb 0.00 in0.0 mm 0.00 in0.0 mm 0.00 in0.0 mm
06:10 AM 36.2°F2.3°C 31.2°F-0.4°C 82% 8.0 mph NNW12.9 kmh NNW 16.0 mph25.7 kmh 30.16 in1021.3 mb 0.00 in0.0 mm 0.00 in0.0 mm 0.00 in0.0 mm
06:12 AM 36.3°F2.4°C 31.3°F-0.4°C 82% 5.0 mph N8.0 kmh N 16.0 mph25.7 kmh 30.17 in1021.7 mb 0.00 in0.0 mm 0.00 in0.0 mm 0.00 in0.0 mm
06:14 AM 36.2°F2.3°C 31.2°F-0.4°C 82% 8.0 mph N12.9 kmh N 18.0 mph29.0 kmh 30.17 in1021.7 mb 0.00 in0.0 mm 0.00 in0.0 mm 0.00 in0.0 mm
06:16 AM 36.2°F2.3°C 30.9°F-0.6°C 81% 6.0 mph NW9.7 kmh NW 18.0 mph29.0 kmh 30.17 in1021.7 mb 0.00 in0.0 mm 0.00 in0.0 mm 0.00 in0.0 mm
06:18 AM 36.2°F2.3°C 30.9°F-0.6°C 81% 10.0 mph N16.1 kmh N 18.0 mph29.0 kmh 30.17 in1021.7 mb 0.00 in0.0 mm 0.00 in0.0 mm 0.00 in0.0 mm
06:20 AM 36.2°F2.3°C 30.9°F-0.6°C 81% 6.0 mph N9.7 kmh N 18.0 mph29.0 kmh 30.17 in1021.7 mb 0.00 in0.0 mm 0.00 in0.0 mm 0.00 in0.0 mm
06:22 AM 36.2°F2.3°C 30.9°F-0.6°C 81% 8.0 mph NNW12.9 kmh NNW 18.0 mph29.0 kmh 30.17 in1021.7 mb 0.00 in0.0 mm 0.00 in0.0 mm 0.00 in0.0 mm
06:24 AM 36.2°F2.3°C 30.9°F-0.6°C 81% 10.0 mph N16.1 kmh N 18.0 mph29.0 kmh 30.17 in1021.7 mb 0.00 in0.0 mm 0.00 in0.0 mm 0.00 in0.0 mm
06:26 AM 36.1°F2.3°C 30.8°F-0.7°C 81% 9.0 mph N14.5 kmh N 18.0 mph29.0 kmh 30.17 in1021.7 mb 0.00 in0.0 mm 0.00 in0.0 mm 0.00 in0.0 mm
06:28 AM 36.1°F2.3°C 30.8°F-0.7°C 81% 10.0 mph NNW16.1 kmh NNW 18.0 mph29.0 kmh 30.18 in1022.0 mb 0.00 in0.0 mm 0.00 in0.0 mm 0.00 in0.0 mm
06:30 AM 36.1°F2.3°C 30.8°F-0.7°C 81% 4.0 mph NE6.4 kmh NE 9.0 mph14.5 kmh 30.18 in1022.0 mb 0.00 in0.0 mm 0.00 in0.0 mm 0.00 in0.0 mm
06:32 AM 36.1°F2.3°C 30.8°F-0.7°C 81% 3.0 mph NE4.8 kmh NE 14.0 mph22.5 kmh 30.18 in1022.0 mb 0.00 in0.0 mm 0.00 in0.0 mm 0.00 in0.0 mm
06:34 AM 36.1°F2.3°C 30.8°F-0.7°C 81% 15.0 mph N24.1 kmh N 15.0 mph24.1 kmh 30.18 in1022.0 mb 0.00 in0.0 mm 0.00 in0.0 mm 0.00 in0.0 mm
06:36 AM 36.1°F2.3°C 30.5°F-0.8°C 80% 15.0 mph N24.1 kmh N 20.0 mph32.2 kmh 30.18 in1022.0 mb 0.00 in0.0 mm 0.00 in0.0 mm 0.00 in0.0 mm
06:38 AM 36.1°F2.3°C 30.8°F-0.7°C 81% 10.0 mph NNE16.1 kmh NNE 20.0 mph32.2 kmh 30.18 in1022.0 mb 0.00 in0.0 mm 0.00 in0.0 mm 0.00 in0.0 mm
06:40 AM 36.1°F2.3°C 30.8°F-0.7°C 81% 7.0 mph NNE11.3 kmh NNE 20.0 mph32.2 kmh 30.19 in1022.4 mb 0.00 in0.0 mm 0.00 in0.0 mm 0.00 in0.0 mm
06:42 AM 36.1°F2.3°C 30.8°F-0.7°C 81% 6.0 mph N9.7 kmh N 20.0 mph32.2 kmh 30.19 in1022.4 mb 0.00 in0.0 mm 0.00 in0.0 mm 0.00 in0.0 mm
06:44 AM 36.1°F2.3°C 30.8°F-0.7°C 81% 6.0 mph NE9.7 kmh NE 20.0 mph32.2 kmh 30.19 in1022.4 mb 0.00 in0.0 mm 0.00 in0.0 mm 0.00 in0.0 mm
06:46 AM 36.1°F2.3°C 30.8°F-0.7°C 81% 12.0 mph NW19.3 kmh NW 20.0 mph32.2 kmh 30.20 in1022.7 mb 0.00 in0.0 mm 0.00 in0.0 mm 0.00 in0.0 mm
06:48 AM 36.1°F2.3°C 30.8°F-0.7°C 81% 10.0 mph N16.1 kmh N 20.0 mph32.2 kmh 30.19 in1022.4 mb 0.00 in0.0 mm 0.00 in0.0 mm 0.00 in0.0 mm
06:50 AM 36.1°F2.3°C 30.5°F-0.8°C 80% 12.0 mph NNE19.3 kmh NNE 20.0 mph32.2 kmh 30.20 in1022.7 mb 0.00 in0.0 mm 0.00 in0.0 mm 0.00 in0.0 mm
06:52 AM 36.0°F2.2°C 30.4°F-0.9°C 80% 4.0 mph N6.4 kmh N 20.0 mph32.2 kmh 30.20 in1022.7 mb 0.00 in0.0 mm 0.00 in0.0 mm 0.00 in0.0 mm
06:54 AM 36.1°F2.3°C 30.8°F-0.7°C 81% 2.0 mph NNE3.2 kmh NNE 20.0 mph32.2 kmh 30.20 in1022.7 mb 0.00 in0.0 mm 0.00 in0.0 mm 0.00 in0.0 mm
06:56 AM 36.1°F2.3°C 30.8°F-0.7°C 81% 9.0 mph NE14.5 kmh NE 20.0 mph32.2 kmh 30.20 in1022.7 mb 0.00 in0.0 mm 0.00 in0.0 mm 0.00 in0.0 mm
06:58 AM 36.1°F2.3°C 30.8°F-0.7°C 81% 5.0 mph NE8.0 kmh NE 20.0 mph32.2 kmh 30.20 in1022.7 mb 0.00 in0.0 mm 0.00 in0.0 mm 0.00 in0.0 mm
07:00 AM 36.1°F2.3°C 30.8°F-0.7°C 81% 8.0 mph N12.9 kmh N 20.0 mph32.2 kmh 30.20 in1022.7 mb 0.00 in0.0 mm 0.00 in0.0 mm 0.00 in0.0 mm
07:02 AM 36.1°F2.3°C 30.8°F-0.7°C 81% 9.0 mph NNW14.5 kmh NNW 9.0 mph14.5 kmh 30.21 in1023.0 mb 0.00 in0.0 mm 0.00 in0.0 mm 0.00 in0.0 mm
07:04 AM 36.0°F2.2°C 30.8°F-0.7°C 81% 3.0 mph N4.8 kmh N 13.0 mph20.9 kmh 30.21 in1023.0 mb 0.00 in0.0 mm 0.00 in0.0 mm 0.00 in0.0 mm
07:06 AM 36.0°F2.2°C 30.8°F-0.7°C 81% 12.0 mph N19.3 kmh N 13.0 mph20.9 kmh 30.21 in1023.0 mb 0.00 in0.0 mm 0.00 in0.0 mm 0.00 in0.0 mm
07:08 AM 36.0°F2.2°C 30.8°F-0.7°C 81% 10.0 mph N16.1 kmh N 13.0 mph20.9 kmh 30.21 in1023.0 mb 0.00 in0.0 mm 0.00 in0.0 mm 0.00 in0.0 mm
07:10 AM 35.9°F2.2°C 30.7°F-0.7°C 81% 4.0 mph N6.4 kmh N 13.0 mph20.9 kmh 30.21 in1023.0 mb 0.00 in0.0 mm 0.00 in0.0 mm 0.00 in0.0 mm
07:12 AM 35.9°F2.2°C 30.7°F-0.7°C 81% 5.0 mph N8.0 kmh N 13.0 mph20.9 kmh 30.21 in1023.0 mb 0.00 in0.0 mm 0.00 in0.0 mm 0.00 in0.0 mm
07:14 AM 35.9°F2.2°C 30.7°F-0.7°C 81% 8.0 mph NW12.9 kmh NW 14.0 mph22.5 kmh 30.22 in1023.4 mb 0.00 in0.0 mm 0.00 in0.0 mm 0.00 in0.0 mm
07:16 AM 35.9°F2.2°C 30.7°F-0.7°C 81% 4.0 mph N6.4 kmh N 14.0 mph22.5 kmh 30.22 in1023.4 mb 0.00 in0.0 mm 0.00 in0.0 mm 0.00 in0.0 mm
07:18 AM 35.8°F2.1°C 30.6°F-0.8°C 81% 12.0 mph N19.3 kmh N 14.0 mph22.5 kmh 30.22 in1023.4 mb 0.00 in0.0 mm 0.00 in0.0 mm 0.00 in0.0 mm
07:20 AM 35.8°F2.1°C 30.6°F-0.8°C 81% 11.0 mph NNW17.7 kmh NNW 14.0 mph22.5 kmh 30.22 in1023.4 mb 0.00 in0.0 mm 0.00 in0.0 mm 0.00 in0.0 mm
07:22 AM 35.7°F2.1°C 30.5°F-0.8°C 81% 8.0 mph NW12.9 kmh NW 16.0 mph25.7 kmh 30.22 in1023.4 mb 0.00 in0.0 mm 0.00 in0.0 mm 0.00 in0.0 mm
07:24 AM 35.7°F2.1°C 30.5°F-0.8°C 81% 9.0 mph NNW14.5 kmh NNW 16.0 mph25.7 kmh 30.22 in1023.4 mb 0.00 in0.0 mm 0.00 in0.0 mm 0.00 in0.0 mm
07:26 AM 35.7°F2.1°C 30.5°F-0.8°C 81% 10.0 mph N16.1 kmh N 16.0 mph25.7 kmh 30.23 in1023.7 mb 0.00 in0.0 mm 0.00 in0.0 mm 0.00 in0.0 mm
07:28 AM 35.7°F2.1°C 30.5°F-0.8°C 81% 6.0 mph NNE9.7 kmh NNE 16.0 mph25.7 kmh 30.22 in1023.4 mb 0.00 in0.0 mm 0.00 in0.0 mm 0.00 in0.0 mm
07:30 AM 35.7°F2.1°C 30.5°F-0.8°C 81% 8.0 mph N12.9 kmh N 8.0 mph12.9 kmh 30.22 in1023.4 mb 0.00 in0.0 mm 0.00 in0.0 mm 0.00 in0.0 mm
07:32 AM 35.7°F2.1°C 30.5°F-0.8°C 81% 5.0 mph N8.0 kmh N 12.0 mph19.3 kmh 30.23 in1023.7 mb 0.00 in0.0 mm 0.00 in0.0 mm 0.00 in0.0 mm
07:34 AM 35.7°F2.1°C 30.5°F-0.8°C 81% 4.0 mph NNE6.4 kmh NNE 12.0 mph19.3 kmh 30.23 in1023.7 mb 0.00 in0.0 mm 0.00 in0.0 mm 0.00 in0.0 mm
07:36 AM 35.7°F2.1°C 30.2°F-1.0°C 80% 10.0 mph N16.1 kmh N 13.0 mph20.9 kmh 30.23 in1023.7 mb 0.00 in0.0 mm 0.00 in0.0 mm 0.00 in0.0 mm
07:38 AM 35.7°F2.1°C 30.2°F-1.0°C 80% 5.0 mph NNW8.0 kmh NNW 13.0 mph20.9 kmh 30.23 in1023.7 mb 0.00 in0.0 mm 0.00 in0.0 mm 0.00 in0.0 mm
07:40 AM 35.6°F2.0°C 30.1°F-1.1°C 80% 12.0 mph N19.3 kmh N 16.0 mph25.7 kmh 30.23 in1023.7 mb 0.00 in0.0 mm 0.00 in0.0 mm 0.00 in0.0 mm
07:42 AM 35.6°F2.0°C 30.1°F-1.1°C 80% 14.0 mph N22.5 kmh N 16.0 mph25.7 kmh 30.23 in1023.7 mb 0.00 in0.0 mm 0.00 in0.0 mm 0.00 in0.0 mm
07:44 AM 35.5°F1.9°C 30.0°F-1.1°C 80% 6.0 mph NW9.7 kmh NW 16.0 mph25.7 kmh 30.24 in1024.0 mb 0.00 in0.0 mm 0.00 in0.0 mm 0.00 in0.0 mm
07:46 AM 35.5°F1.9°C 30.0°F-1.1°C 80% 6.0 mph N9.7 kmh N 16.0 mph25.7 kmh 30.23 in1023.7 mb 0.00 in0.0 mm 0.00 in0.0 mm 0.00 in0.0 mm
07:48 AM 35.5°F1.9°C 30.0°F-1.1°C 80% 10.0 mph NW16.1 kmh NW 16.0 mph25.7 kmh 30.24 in1024.0 mb 0.00 in0.0 mm 0.00 in0.0 mm 0.00 in0.0 mm
07:50 AM 35.5°F1.9°C 30.0°F-1.1°C 80% 5.0 mph N8.0 kmh N 16.0 mph25.7 kmh 30.24 in1024.0 mb 0.00 in0.0 mm 0.00 in0.0 mm 0.00 in0.0 mm
07:52 AM 35.6°F2.0°C 30.1°F-1.1°C 80% 9.0 mph NNW14.5 kmh NNW 16.0 mph25.7 kmh 30.24 in1024.0 mb 0.00 in0.0 mm 0.00 in0.0 mm 0.00 in0.0 mm
07:54 AM 35.6°F2.0°C 30.1°F-1.1°C 80% 11.0 mph N17.7 kmh N 16.0 mph25.7 kmh 30.24 in1024.0 mb 0.00 in0.0 mm 0.00 in0.0 mm 0.00 in0.0 mm
07:56 AM 35.5°F1.9°C 30.0°F-1.1°C 80% 14.0 mph NNW22.5 kmh NNW 16.0 mph25.7 kmh 30.24 in1024.0 mb 0.00 in0.0 mm 0.00 in0.0 mm 0.00 in0.0 mm
07:58 AM 35.5°F1.9°C 29.6°F-1.3°C 79% 13.0 mph N20.9 kmh N 16.0 mph25.7 kmh 30.25 in1024.4 mb 0.00 in0.0 mm 0.00 in0.0 mm 0.00 in0.0 mm
08:00 AM 35.4°F1.9°C 29.6°F-1.3°C 79% 17.0 mph NNE27.4 kmh NNE 17.0 mph27.4 kmh 30.25 in1024.4 mb 0.00 in0.0 mm 0.00 in0.0 mm 0.00 in0.0 mm
08:02 AM 35.4°F1.9°C 29.6°F-1.3°C 79% 12.0 mph N19.3 kmh N 17.0 mph27.4 kmh 30.25 in1024.4 mb 0.00 in0.0 mm 0.00 in0.0 mm 0.00 in0.0 mm
08:04 AM 35.3°F1.8°C 29.5°F-1.4°C 79% 8.0 mph N12.9 kmh N 17.0 mph27.4 kmh 30.25 in1024.4 mb 0.00 in0.0 mm 0.00 in0.0 mm 0.00 in0.0 mm
08:06 AM 35.3°F1.8°C 29.5°F-1.4°C 79% 7.0 mph NE11.3 kmh NE 17.0 mph27.4 kmh 30.25 in1024.4 mb 0.00 in0.0 mm 0.00 in0.0 mm 0.00 in0.0 mm
08:08 AM 35.3°F1.8°C 29.5°F-1.4°C 79% 12.0 mph N19.3 kmh N 17.0 mph27.4 kmh 30.25 in1024.4 mb 0.00 in0.0 mm 0.00 in0.0 mm 0.00 in0.0 mm
08:10 AM 35.3°F1.8°C 29.5°F-1.4°C 79% 3.0 mph N4.8 kmh N 17.0 mph27.4 kmh 30.25 in1024.4 mb 0.00 in0.0 mm 0.00 in0.0 mm 0.00 in0.0 mm
08:12 AM 35.3°F1.8°C 29.5°F-1.4°C 79% 10.0 mph NW16.1 kmh NW 17.0 mph27.4 kmh 30.25 in1024.4 mb 0.00 in0.0 mm 0.00 in0.0 mm 0.00 in0.0 mm
08:14 AM 35.3°F1.8°C 29.5°F-1.4°C 79% 16.0 mph N25.7 kmh N 17.0 mph27.4 kmh 30.25 in1024.4 mb 0.00 in0.0 mm 0.00 in0.0 mm 0.00 in0.0 mm
08:16 AM 35.3°F1.8°C 29.5°F-1.4°C 79% 7.0 mph N11.3 kmh N 17.0 mph27.4 kmh 30.26 in1024.7 mb 0.00 in0.0 mm 0.00 in0.0 mm 0.00 in0.0 mm
08:18 AM 35.3°F1.8°C 29.5°F-1.4°C 79% 7.0 mph N11.3 kmh N 17.0 mph27.4 kmh 30.25 in1024.4 mb 0.00 in0.0 mm 0.00 in0.0 mm 0.00 in0.0 mm
08:20 AM 35.3°F1.8°C 29.5°F-1.4°C 79% 12.0 mph N19.3 kmh N 17.0 mph27.4 kmh 30.26 in1024.7 mb 0.00 in0.0 mm 0.00 in0.0 mm 0.00 in0.0 mm
08:22 AM 35.3°F1.8°C 29.5°F-1.4°C 79% 3.0 mph NNE4.8 kmh NNE 17.0 mph27.4 kmh 30.26 in1024.7 mb 0.00 in0.0 mm 0.00 in0.0 mm 0.00 in0.0 mm
08:24 AM 35.4°F1.9°C 29.6°F-1.3°C 79% 8.0 mph NW12.9 kmh NW 17.0 mph27.4 kmh 30.26 in1024.7 mb 0.00 in0.0 mm 0.00 in0.0 mm 0.00 in0.0 mm
08:26 AM 35.4°F1.9°C 29.6°F-1.3°C 79% 4.0 mph N6.4 kmh N 17.0 mph27.4 kmh 30.26 in1024.7 mb 0.00 in0.0 mm 0.00 in0.0 mm 0.00 in0.0 mm
08:28 AM 35.5°F1.9°C 29.6°F-1.3°C 79% 9.0 mph N14.5 kmh N 17.0 mph27.4 kmh 30.27 in1025.1 mb 0.00 in0.0 mm 0.00 in0.0 mm 0.00 in0.0 mm
08:30 AM 35.5°F1.9°C 29.6°F-1.3°C 79% 13.0 mph N20.9 kmh N 17.0 mph27.4 kmh 30.27 in1025.1 mb 0.00 in0.0 mm 0.00 in0.0 mm 0.00 in0.0 mm
08:32 AM 35.4°F1.9°C 29.6°F-1.3°C 79% 9.0 mph NNW14.5 kmh NNW 13.0 mph20.9 kmh 30.27 in1025.1 mb 0.00 in0.0 mm 0.00 in0.0 mm 0.00 in0.0 mm
08:34 AM 35.5°F1.9°C 29.6°F-1.3°C 79% 4.0 mph N6.4 kmh N 14.0 mph22.5 kmh 30.27 in1025.1 mb 0.00 in0.0 mm 0.00 in0.0 mm 0.00 in0.0 mm
08:36 AM 35.4°F1.9°C 29.6°F-1.3°C 79% 8.0 mph NNW12.9 kmh NNW 14.0 mph22.5 kmh 30.27 in1025.1 mb 0.00 in0.0 mm 0.00 in0.0 mm 0.00 in0.0 mm
08:38 AM 35.5°F1.9°C 29.6°F-1.3°C 79% 4.0 mph NNW6.4 kmh NNW 14.0 mph22.5 kmh 30.27 in1025.1 mb 0.00 in0.0 mm 0.00 in0.0 mm 0.00 in0.0 mm
08:40 AM 35.5°F1.9°C 29.6°F-1.3°C 79% 14.0 mph N22.5 kmh N 16.0 mph25.7 kmh 30.27 in1025.1 mb 0.00 in0.0 mm 0.00 in0.0 mm 0.00 in0.0 mm
08:42 AM 35.5°F1.9°C 29.6°F-1.3°C 79% 11.0 mph NE17.7 kmh NE 17.0 mph27.4 kmh 30.27 in1025.1 mb 0.00 in0.0 mm 0.00 in0.0 mm 0.00 in0.0 mm
08:44 AM 35.3°F1.8°C 29.1°F-1.6°C 78% 5.0 mph NNE8.0 kmh NNE 17.0 mph27.4 kmh 30.27 in1025.1 mb 0.00 in0.0 mm 0.00 in0.0 mm 0.00 in0.0 mm
08:46 AM 35.3°F1.8°C 29.1°F-1.6°C 78% 4.0 mph NW6.4 kmh NW 17.0 mph27.4 kmh 30.27 in1025.1 mb 0.00 in0.0 mm 0.00 in0.0 mm 0.00 in0.0 mm
08:48 AM 35.3°F1.8°C 29.5°F-1.4°C 79% 11.0 mph NW17.7 kmh NW 17.0 mph27.4 kmh 30.27 in1025.1 mb 0.00 in0.0 mm 0.00 in0.0 mm 0.00 in0.0 mm
08:50 AM 35.4°F1.9°C 29.6°F-1.3°C 79% 8.0 mph N12.9 kmh N 17.0 mph27.4 kmh 30.28 in1025.4 mb 0.00 in0.0 mm 0.00 in0.0 mm 0.00 in0.0 mm
08:52 AM 35.4°F1.9°C 29.6°F-1.3°C 79% 3.0 mph N4.8 kmh N 17.0 mph27.4 kmh 30.28 in1025.4 mb 0.00 in0.0 mm 0.00 in0.0 mm 0.00 in0.0 mm
08:54 AM 35.5°F1.9°C 29.6°F-1.3°C 79% 11.0 mph N17.7 kmh N 17.0 mph27.4 kmh 30.28 in1025.4 mb 0.00 in0.0 mm 0.00 in0.0 mm 0.00 in0.0 mm
08:56 AM 35.4°F1.9°C 29.6°F-1.3°C 79% 18.0 mph NNW29.0 kmh NNW 18.0 mph29.0 kmh 30.28 in1025.4 mb 0.00 in0.0 mm 0.00 in0.0 mm 0.00 in0.0 mm
08:58 AM 35.4°F1.9°C 29.2°F-1.6°C 78% 11.0 mph N17.7 kmh N 18.0 mph29.0 kmh 30.28 in1025.4 mb 0.00 in0.0 mm 0.00 in0.0 mm 0.00 in0.0 mm
09:00 AM 35.3°F1.8°C 29.1°F-1.6°C 78% 17.0 mph N27.4 kmh N 17.0 mph27.4 kmh 30.28 in1025.4 mb 0.00 in0.0 mm 0.00 in0.0 mm 0.00 in0.0 mm
09:02 AM 35.3°F1.8°C 29.1°F-1.6°C 78% 15.0 mph NNW24.1 kmh NNW 17.0 mph27.4 kmh 30.28 in1025.4 mb 0.00 in0.0 mm 0.00 in0.0 mm 0.00 in0.0 mm
09:04 AM 35.3°F1.8°C 29.1°F-1.6°C 78% 3.0 mph NE4.8 kmh NE 17.0 mph27.4 kmh 30.29 in1025.7 mb 0.00 in0.0 mm 0.00 in0.0 mm 0.00 in0.0 mm
09:06 AM 35.3°F1.8°C 29.1°F-1.6°C 78% 6.0 mph N9.7 kmh N 17.0 mph27.4 kmh 30.29 in1025.7 mb 0.00 in0.0 mm 0.00 in0.0 mm 0.00 in0.0 mm
09:08 AM 35.2°F1.8°C 29.0°F-1.7°C 78% 11.0 mph NNW17.7 kmh NNW 17.0 mph27.4 kmh 30.29 in1025.7 mb 0.00 in0.0 mm 0.00 in0.0 mm 0.00 in0.0 mm
09:10 AM 35.2°F1.8°C 29.0°F-1.7°C 78% 14.0 mph NW22.5 kmh NW 17.0 mph27.4 kmh 30.29 in1025.7 mb 0.00 in0.0 mm 0.00 in0.0 mm 0.00 in0.0 mm
09:12 AM 35.2°F1.8°C 29.0°F-1.7°C 78% 6.0 mph N9.7 kmh N 17.0 mph27.4 kmh 30.29 in1025.7 mb 0.00 in0.0 mm 0.00 in0.0 mm 0.00 in0.0 mm
09:14 AM 35.2°F1.8°C 29.0°F-1.7°C 78% 14.0 mph NNE22.5 kmh NNE 17.0 mph27.4 kmh 30.29 in1025.7 mb 0.00 in0.0 mm 0.00 in0.0 mm 0.00 in0.0 mm
09:16 AM 35.1°F1.7°C 28.9°F-1.7°C 78% 11.0 mph N17.7 kmh N 18.0 mph29.0 kmh 30.30 in1026.1 mb 0.00 in0.0 mm 0.00 in0.0 mm 0.00 in0.0 mm
09:18 AM 35.1°F1.7°C 28.6°F-1.9°C 77% 3.0 mph N4.8 kmh N 18.0 mph29.0 kmh 30.29 in1025.7 mb 0.00 in0.0 mm 0.00 in0.0 mm 0.00 in0.0 mm
09:20 AM 35.1°F1.7°C 28.9°F-1.7°C 78% 11.0 mph N17.7 kmh N 18.0 mph29.0 kmh 30.30 in1026.1 mb 0.00 in0.0 mm 0.00 in0.0 mm 0.00 in0.0 mm
09:22 AM 35.1°F1.7°C 28.9°F-1.7°C 78% 6.0 mph NW9.7 kmh NW 18.0 mph29.0 kmh 30.30 in1026.1 mb 0.00 in0.0 mm 0.00 in0.0 mm 0.00 in0.0 mm
09:24 AM 35.1°F1.7°C 28.6°F-1.9°C 77% 8.0 mph NNE12.9 kmh NNE 18.0 mph29.0 kmh 30.30 in1026.1 mb 0.00 in0.0 mm 0.00 in0.0 mm 0.00 in0.0 mm
09:26 AM 35.1°F1.7°C 28.6°F-1.9°C 77% 4.0 mph NE6.4 kmh NE 18.0 mph29.0 kmh 30.30 in1026.1 mb 0.00 in0.0 mm 0.00 in0.0 mm 0.00 in0.0 mm
09:28 AM 35.1°F1.7°C 28.6°F-1.9°C 77% 15.0 mph N24.1 kmh N 18.0 mph29.0 kmh 30.30 in1026.1 mb 0.00 in0.0 mm 0.00 in0.0 mm 0.00 in0.0 mm
09:30 AM 35.2°F1.8°C 28.7°F-1.8°C 77% 11.0 mph NNW17.7 kmh NNW 11.0 mph17.7 kmh 30.30 in1026.1 mb 0.00 in0.0 mm 0.00 in0.0 mm 0.00 in0.0 mm
09:32 AM 35.1°F1.7°C 28.6°F-1.9°C 77% 12.0 mph NNW19.3 kmh NNW 15.0 mph24.1 kmh 30.30 in1026.1 mb 0.00 in0.0 mm 0.00 in0.0 mm 0.00 in0.0 mm
09:34 AM 35.1°F1.7°C 28.6°F-1.9°C 77% 7.0 mph N11.3 kmh N 17.0 mph27.4 kmh 30.30 in1026.1 mb 0.00 in0.0 mm 0.00 in0.0 mm 0.00 in0.0 mm
09:36 AM 35.1°F1.7°C 28.9°F-1.7°C 78% 8.0 mph NW12.9 kmh NW 19.0 mph30.6 kmh 30.31 in1026.4 mb 0.00 in0.0 mm 0.00 in0.0 mm 0.00 in0.0 mm
09:38 AM 35.2°F1.8°C 28.7°F-1.8°C 77% 8.0 mph N12.9 kmh N 19.0 mph30.6 kmh 30.31 in1026.4 mb 0.00 in0.0 mm 0.00 in0.0 mm 0.00 in0.0 mm
09:39 AM 35.2°F1.8°C 28.7°F-1.8°C 77% 13.0 mph N20.9 kmh N 19.0 mph30.6 kmh 30.31 in1026.4 mb 0.00 in0.0 mm 0.00 in0.0 mm 0.00 in0.0 mm
09:42 AM 35.1°F1.7°C 28.6°F-1.9°C 77% 18.0 mph NNW29.0 kmh NNW 19.0 mph30.6 kmh 30.31 in1026.4 mb 0.00 in0.0 mm 0.00 in0.0 mm 0.00 in0.0 mm
09:44 AM 35.0°F1.7°C 28.5°F-1.9°C 77% 8.0 mph NNW12.9 kmh NNW 19.0 mph30.6 kmh 30.31 in1026.4 mb 0.00 in0.0 mm 0.00 in0.0 mm 0.00 in0.0 mm
09:46 AM 35.0°F1.7°C 28.5°F-1.9°C 77% 9.0 mph NW14.5 kmh NW 19.0 mph30.6 kmh 30.31 in1026.4 mb 0.00 in0.0 mm 0.00 in0.0 mm 0.00 in0.0 mm
09:48 AM 35.1°F1.7°C 28.9°F-1.7°C 78% 7.0 mph N11.3 kmh N 19.0 mph30.6 kmh 30.31 in1026.4 mb 0.00 in0.0 mm 0.00 in0.0 mm 0.00 in0.0 mm
09:50 AM 35.1°F1.7°C 28.6°F-1.9°C 77% 4.0 mph N6.4 kmh N 19.0 mph30.6 kmh 30.31 in1026.4 mb 0.00 in0.0 mm 0.00 in0.0 mm 0.00 in0.0 mm
09:52 AM 35.2°F1.8°C 28.7°F-1.8°C 77% 12.0 mph N19.3 kmh N 19.0 mph30.6 kmh 30.31 in1026.4 mb 0.00 in0.0 mm 0.00 in0.0 mm 0.00 in0.0 mm
09:54 AM 35.2°F1.8°C 28.7°F-1.8°C 77% 7.0 mph NE11.3 kmh NE 19.0 mph30.6 kmh 30.31 in1026.4 mb 0.00 in0.0 mm 0.00 in0.0 mm 0.00 in0.0 mm
09:56 AM 35.2°F1.8°C 28.7°F-1.8°C 77% 16.0 mph N25.7 kmh N 19.0 mph30.6 kmh 30.32 in1026.8 mb 0.00 in0.0 mm 0.00 in0.0 mm 0.00 in0.0 mm
09:58 AM 35.2°F1.8°C 28.7°F-1.8°C 77% 10.0 mph N16.1 kmh N 19.0 mph30.6 kmh 30.33 in1027.1 mb 0.00 in0.0 mm 0.00 in0.0 mm 0.00 in0.0 mm
10:00 AM 35.1°F1.7°C 28.6°F-1.9°C 77% 10.0 mph NW16.1 kmh NW 12.0 mph19.3 kmh 30.32 in1026.8 mb 0.00 in0.0 mm 0.00 in0.0 mm 0.00 in0.0 mm
10:02 AM 35.2°F1.8°C 28.7°F-1.8°C 77% 9.0 mph NE14.5 kmh NE 16.0 mph25.7 kmh 30.32 in1026.8 mb 0.00 in0.0 mm 0.00 in0.0 mm 0.00 in0.0 mm
10:04 AM 35.2°F1.8°C 28.7°F-1.8°C 77% 9.0 mph N14.5 kmh N 16.0 mph25.7 kmh 30.32 in1026.8 mb 0.00 in0.0 mm 0.00 in0.0 mm 0.00 in0.0 mm
10:06 AM 35.2°F1.8°C 28.7°F-1.8°C 77% 11.0 mph N17.7 kmh N 16.0 mph25.7 kmh 30.32 in1026.8 mb 0.00 in0.0 mm 0.00 in0.0 mm 0.00 in0.0 mm
10:08 AM 35.2°F1.8°C 28.7°F-1.8°C 77% 12.0 mph N19.3 kmh N 16.0 mph25.7 kmh 30.32 in1026.8 mb 0.00 in0.0 mm 0.00 in0.0 mm 0.00 in0.0 mm
10:10 AM 35.3°F1.8°C 28.8°F-1.8°C 77% 10.0 mph N16.1 kmh N 16.0 mph25.7 kmh 30.32 in1026.8 mb 0.00 in0.0 mm 0.00 in0.0 mm 0.00 in0.0 mm
10:12 AM 35.3°F1.8°C 28.8°F-1.8°C 77% 12.0 mph N19.3 kmh N 16.0 mph25.7 kmh 30.32 in1026.8 mb 0.00 in0.0 mm 0.00 in0.0 mm 0.00 in0.0 mm
10:14 AM 35.3°F1.8°C 28.8°F-1.8°C 77% 6.0 mph NNE9.7 kmh NNE 16.0 mph25.7 kmh 30.32 in1026.8 mb 0.00 in0.0 mm 0.00 in0.0 mm 0.00 in0.0 mm
10:16 AM 35.4°F1.9°C 28.9°F-1.7°C 77% 12.0 mph NNW19.3 kmh NNW 16.0 mph25.7 kmh 30.32 in1026.8 mb 0.00 in0.0 mm 0.00 in0.0 mm 0.00 in0.0 mm
10:18 AM 35.3°F1.8°C 28.8°F-1.8°C 77% 8.0 mph N12.9 kmh N 16.0 mph25.7 kmh 30.32 in1026.8 mb 0.00 in0.0 mm 0.00 in0.0 mm 0.00 in0.0 mm
10:20 AM 35.3°F1.8°C 28.5°F-1.9°C 76% 18.0 mph NNW29.0 kmh NNW 18.0 mph29.0 kmh 30.32 in1026.8 mb 0.00 in0.0 mm 0.00 in0.0 mm 0.00 in0.0 mm
10:22 AM 35.3°F1.8°C 28.5°F-1.9°C 76% 8.0 mph N12.9 kmh N 19.0 mph30.6 kmh 30.31 in1026.4 mb 0.00 in0.0 mm 0.00 in0.0 mm 0.00 in0.0 mm
10:24 AM 35.3°F1.8°C 28.5°F-1.9°C 76% 10.0 mph N16.1 kmh N 19.0 mph30.6 kmh 30.31 in1026.4 mb 0.00 in0.0 mm 0.00 in0.0 mm 0.00 in0.0 mm
10:26 AM 35.4°F1.9°C 28.6°F-1.9°C 76% 12.0 mph NNE19.3 kmh NNE 19.0 mph30.6 kmh 30.31 in1026.4 mb 0.00 in0.0 mm 0.00 in0.0 mm 0.00 in0.0 mm
10:28 AM 35.3°F1.8°C 28.8°F-1.8°C 77% 10.0 mph N16.1 kmh N 19.0 mph30.6 kmh 30.31 in1026.4 mb 0.00 in0.0 mm 0.00 in0.0 mm 0.00 in0.0 mm
10:30 AM 35.3°F1.8°C 28.8°F-1.8°C 77% 6.0 mph NNE9.7 kmh NNE 6.0 mph9.7 kmh 30.31 in1026.4 mb 0.00 in0.0 mm 0.00 in0.0 mm 0.00 in0.0 mm
10:32 AM 35.5°F1.9°C 29.0°F-1.7°C 77% 12.0 mph NNE19.3 kmh NNE 15.0 mph24.1 kmh 30.31 in1026.4 mb 0.00 in0.0 mm 0.00 in0.0 mm 0.00 in0.0 mm
10:34 AM 35.3°F1.8°C 28.5°F-1.9°C 76% 14.0 mph N22.5 kmh N 15.0 mph24.1 kmh 30.31 in1026.4 mb 0.00 in0.0 mm 0.00 in0.0 mm 0.00 in0.0 mm
10:36 AM 35.2°F1.8°C 28.4°F-2.0°C 76% 11.0 mph N17.7 kmh N 18.0 mph29.0 kmh 30.31 in1026.4 mb 0.00 in0.0 mm 0.00 in0.0 mm 0.00 in0.0 mm
10:38 AM 35.2°F1.8°C 28.7°F-1.8°C 77% 4.0 mph NNE6.4 kmh NNE 18.0 mph29.0 kmh 30.31 in1026.4 mb 0.00 in0.0 mm 0.00 in0.0 mm 0.00 in0.0 mm
10:40 AM 35.2°F1.8°C 28.7°F-1.8°C 77% 9.0 mph NE14.5 kmh NE 18.0 mph29.0 kmh 30.31 in1026.4 mb 0.00 in0.0 mm 0.00 in0.0 mm 0.00 in0.0 mm
10:42 AM 35.3°F1.8°C 28.5°F-1.9°C 76% 6.0 mph NNE9.7 kmh NNE 18.0 mph29.0 kmh 30.31 in1026.4 mb 0.00 in0.0 mm 0.00 in0.0 mm 0.00 in0.0 mm
10:44 AM 35.3°F1.8°C 28.5°F-1.9°C 76% 6.0 mph N9.7 kmh N 18.0 mph29.0 kmh 30.31 in1026.4 mb 0.00 in0.0 mm 0.00 in0.0 mm 0.00 in0.0 mm
10:46 AM 35.3°F1.8°C 28.5°F-1.9°C 76% 16.0 mph N25.7 kmh N 18.0 mph29.0 kmh 30.31 in1026.4 mb 0.00 in0.0 mm 0.00 in0.0 mm 0.00 in0.0 mm
10:48 AM 35.2°F1.8°C 28.4°F-2.0°C 76% 11.0 mph NW17.7 kmh NW 18.0 mph29.0 kmh 30.32 in1026.8 mb 0.00 in0.0 mm 0.00 in0.0 mm 0.00 in0.0 mm
10:50 AM 35.1°F1.7°C 28.3°F-2.1°C 76% 11.0 mph N17.7 kmh N 18.0 mph29.0 kmh 30.32 in1026.8 mb 0.00 in0.0 mm 0.00 in0.0 mm 0.00 in0.0 mm
10:52 AM 35.1°F1.7°C 28.3°F-2.1°C 76% 11.0 mph NW17.7 kmh NW 18.0 mph29.0 kmh 30.32 in1026.8 mb 0.00 in0.0 mm 0.00 in0.0 mm 0.00 in0.0 mm
10:54 AM 35.1°F1.7°C 28.3°F-2.1°C 76% 9.0 mph NNW14.5 kmh NNW 18.0 mph29.0 kmh 30.32 in1026.8 mb 0.00 in0.0 mm 0.00 in0.0 mm 0.00 in0.0 mm
10:56 AM 35.1°F1.7°C 28.6°F-1.9°C 77% 13.0 mph N20.9 kmh N 18.0 mph29.0 kmh 30.31 in1026.4 mb 0.00 in0.0 mm 0.00 in0.0 mm 0.00 in0.0 mm
10:58 AM 35.0°F1.7°C 28.5°F-1.9°C 77% 9.0 mph N14.5 kmh N 18.0 mph29.0 kmh 30.31 in1026.4 mb 0.00 in0.0 mm 0.00 in0.0 mm 0.00 in0.0 mm
11:00 AM 35.0°F1.7°C 28.5°F-1.9°C 77% 12.0 mph N19.3 kmh N 12.0 mph19.3 kmh 30.31 in1026.4 mb 0.00 in0.0 mm 0.00 in0.0 mm 0.00 in0.0 mm
11:02 AM 35.0°F1.7°C 28.5°F-1.9°C 77% 12.0 mph NW19.3 kmh NW 14.0 mph22.5 kmh 30.31 in1026.4 mb 0.00 in0.0 mm 0.00 in0.0 mm 0.00 in0.0 mm
11:04 AM 35.1°F1.7°C 28.9°F-1.7°C 78% 13.0 mph NW20.9 kmh NW 14.0 mph22.5 kmh 30.31 in1026.4 mb 0.00 in0.0 mm 0.00 in0.0 mm 0.00 in0.0 mm
11:06 AM 35.2°F1.8°C 28.7°F-1.8°C 77% 8.0 mph NNW12.9 kmh NNW 16.0 mph25.7 kmh 30.31 in1026.4 mb 0.00 in0.0 mm 0.00 in0.0 mm 0.00 in0.0 mm
11:08 AM 35.2°F1.8°C 28.7°F-1.8°C 77% 5.0 mph NNW8.0 kmh NNW 16.0 mph25.7 kmh 30.31 in1026.4 mb 0.00 in0.0 mm 0.00 in0.0 mm 0.00 in0.0 mm
11:10 AM 35.2°F1.8°C 28.7°F-1.8°C 77% 7.0 mph NE11.3 kmh NE 16.0 mph25.7 kmh 30.30 in1026.1 mb 0.00 in0.0 mm 0.00 in0.0 mm 0.00 in0.0 mm
11:12 AM 35.3°F1.8°C 28.8°F-1.8°C 77% 5.0 mph NW8.0 kmh NW 16.0 mph25.7 kmh 30.30 in1026.1 mb 0.00 in0.0 mm 0.00 in0.0 mm 0.00 in0.0 mm
11:14 AM 35.2°F1.8°C 28.7°F-1.8°C 77% 8.0 mph NNW12.9 kmh NNW 16.0 mph25.7 kmh 30.30 in1026.1 mb 0.00 in0.0 mm 0.00 in0.0 mm 0.00 in0.0 mm
11:16 AM 35.2°F1.8°C 28.7°F-1.8°C 77% 4.0 mph N6.4 kmh N 16.0 mph25.7 kmh 30.31 in1026.4 mb 0.00 in0.0 mm 0.00 in0.0 mm 0.00 in0.0 mm
11:18 AM 35.3°F1.8°C 28.8°F-1.8°C 77% 8.0 mph N12.9 kmh N 16.0 mph25.7 kmh 30.31 in1026.4 mb 0.00 in0.0 mm 0.00 in0.0 mm 0.00 in0.0 mm
11:20 AM 35.4°F1.9°C 28.6°F-1.9°C 76% 5.0 mph NE8.0 kmh NE 16.0 mph25.7 kmh 30.31 in1026.4 mb 0.00 in0.0 mm 0.00 in0.0 mm 0.00 in0.0 mm
11:22 AM 35.5°F1.9°C 29.0°F-1.7°C 77% 5.0 mph N8.0 kmh N 16.0 mph25.7 kmh 30.31 in1026.4 mb 0.00 in0.0 mm 0.00 in0.0 mm 0.00 in0.0 mm
11:24 AM 35.4°F1.9°C 28.6°F-1.9°C 76% 4.0 mph N6.4 kmh N 16.0 mph25.7 kmh 30.31 in1026.4 mb 0.00 in0.0 mm 0.00 in0.0 mm 0.00 in0.0 mm
11:26 AM 35.4°F1.9°C 28.9°F-1.7°C 77% 2.0 mph NW3.2 kmh NW 16.0 mph25.7 kmh 30.31 in1026.4 mb 0.00 in0.0 mm 0.00 in0.0 mm 0.00 in0.0 mm
11:28 AM 35.5°F1.9°C 29.0°F-1.7°C 77% 9.0 mph NNE14.5 kmh NNE 16.0 mph25.7 kmh 30.31 in1026.4 mb 0.00 in0.0 mm 0.00 in0.0 mm 0.00 in0.0 mm
11:30 AM 35.6°F2.0°C 29.1°F-1.6°C 77% 10.0 mph N16.1 kmh N 16.0 mph25.7 kmh 30.31 in1026.4 mb 0.00 in0.0 mm 0.00 in0.0 mm 0.00 in0.0 mm
11:32 AM 35.4°F1.9°C 28.6°F-1.9°C 76% 17.0 mph N27.4 kmh N 17.0 mph27.4 kmh 30.31 in1026.4 mb 0.00 in0.0 mm 0.00 in0.0 mm 0.00 in0.0 mm
11:34 AM 35.1°F1.7°C 28.3°F-2.1°C 76% 5.0 mph NW8.0 kmh NW 17.0 mph27.4 kmh 30.31 in1026.4 mb 0.00 in0.0 mm 0.00 in0.0 mm 0.00 in0.0 mm
11:36 AM 35.0°F1.7°C 28.2°F-2.1°C 76% 3.0 mph NNW4.8 kmh NNW 17.0 mph27.4 kmh 30.31 in1026.4 mb 0.00 in0.0 mm 0.00 in0.0 mm 0.00 in0.0 mm
11:38 AM 35.0°F1.7°C 28.5°F-1.9°C 77% 12.0 mph NW19.3 kmh NW 17.0 mph27.4 kmh 30.31 in1026.4 mb 0.00 in0.0 mm 0.00 in0.0 mm 0.00 in0.0 mm
11:40 AM 35.1°F1.7°C 28.6°F-1.9°C 77% 3.0 mph N4.8 kmh N 17.0 mph27.4 kmh 30.31 in1026.4 mb 0.00 in0.0 mm 0.00 in0.0 mm 0.00 in0.0 mm
11:42 AM 35.2°F1.8°C 28.7°F-1.8°C 77% 5.0 mph NNE8.0 kmh NNE 17.0 mph27.4 kmh 30.31 in1026.4 mb 0.00 in0.0 mm 0.00 in0.0 mm 0.00 in0.0 mm
11:44 AM 35.1°F1.7°C 28.6°F-1.9°C 77% 13.0 mph NNW20.9 kmh NNW 17.0 mph27.4 kmh 30.31 in1026.4 mb 0.00 in0.0 mm 0.00 in0.0 mm 0.00 in0.0 mm
11:46 AM 35.1°F1.7°C 28.6°F-1.9°C 77% 10.0 mph NNW16.1 kmh NNW 17.0 mph27.4 kmh 30.31 in1026.4 mb 0.00 in0.0 mm 0.00 in0.0 mm 0.00 in0.0 mm
11:48 AM 35.1°F1.7°C 28.6°F-1.9°C 77% 6.0 mph N9.7 kmh N 17.0 mph27.4 kmh 30.31 in1026.4 mb 0.00 in0.0 mm 0.00 in0.0 mm 0.00 in0.0 mm
11:50 AM 35.1°F1.7°C 28.6°F-1.9°C 77% 4.0 mph NNW6.4 kmh NNW 17.0 mph27.4 kmh 30.31 in1026.4 mb 0.00 in0.0 mm 0.00 in0.0 mm 0.00 in0.0 mm
11:52 AM 35.1°F1.7°C 28.6°F-1.9°C 77% 10.0 mph N16.1 kmh N 17.0 mph27.4 kmh 30.30 in1026.1 mb 0.00 in0.0 mm 0.00 in0.0 mm 0.00 in0.0 mm
11:54 AM 35.1°F1.7°C 28.3°F-2.1°C 76% 2.0 mph NNE3.2 kmh NNE 17.0 mph27.4 kmh 30.30 in1026.1 mb 0.00 in0.0 mm 0.00 in0.0 mm 0.00 in0.0 mm
11:56 AM 35.0°F1.7°C 28.5°F-1.9°C 77% 8.0 mph N12.9 kmh N 17.0 mph27.4 kmh 30.30 in1026.1 mb 0.00 in0.0 mm 0.00 in0.0 mm 0.00 in0.0 mm
11:58 AM 35.0°F1.7°C 28.5°F-1.9°C 77% 14.0 mph NNW22.5 kmh NNW 18.0 mph29.0 kmh 30.30 in1026.1 mb 0.00 in0.0 mm 0.00 in0.0 mm 0.00 in0.0 mm
12:00 PM 34.8°F1.6°C 28.3°F-2.1°C 77% 8.0 mph N12.9 kmh N 8.0 mph12.9 kmh 30.30 in1026.1 mb 0.00 in0.0 mm 0.00 in0.0 mm 0.00 in0.0 mm
12:02 PM 34.8°F1.6°C 28.3°F-2.1°C 77% 6.0 mph NNW9.7 kmh NNW 13.0 mph20.9 kmh 30.30 in1026.1 mb 0.00 in0.0 mm 0.00 in0.0 mm 0.00 in0.0 mm
12:04 PM 34.8°F1.6°C 28.3°F-2.1°C 77% 3.0 mph NNE4.8 kmh NNE 13.0 mph20.9 kmh 30.29 in1025.7 mb 0.00 in0.0 mm 0.00 in0.0 mm 0.00 in0.0 mm
12:06 PM 35.0°F1.7°C 28.9°F-1.7°C 78% 13.0 mph NNE20.9 kmh NNE 13.0 mph20.9 kmh 30.29 in1025.7 mb 0.00 in0.0 mm 0.00 in0.0 mm 0.00 in0.0 mm
12:08 PM 35.0°F1.7°C 28.5°F-1.9°C 77% 10.0 mph NW16.1 kmh NW 13.0 mph20.9 kmh 30.29 in1025.7 mb 0.00 in0.0 mm 0.00 in0.0 mm 0.00 in0.0 mm
12:10 PM 35.0°F1.7°C 28.5°F-1.9°C 77% 12.0 mph NW19.3 kmh NW 15.0 mph24.1 kmh 30.28 in1025.4 mb 0.00 in0.0 mm 0.00 in0.0 mm 0.00 in0.0 mm
12:12 PM 35.0°F1.7°C 28.5°F-1.9°C 77% 11.0 mph NW17.7 kmh NW 15.0 mph24.1 kmh 30.28 in1025.4 mb 0.00 in0.0 mm 0.00 in0.0 mm 0.00 in0.0 mm
12:14 PM 35.0°F1.7°C 28.5°F-1.9°C 77% 5.0 mph NW8.0 kmh NW 15.0 mph24.1 kmh 30.28 in1025.4 mb 0.00 in0.0 mm 0.00 in0.0 mm 0.00 in0.0 mm
12:16 PM 35.0°F1.7°C 28.5°F-1.9°C 77% 4.0 mph NNW6.4 kmh NNW 15.0 mph24.1 kmh 30.28 in1025.4 mb 0.00 in0.0 mm 0.00 in0.0 mm 0.00 in0.0 mm
12:18 PM 35.0°F1.7°C 28.5°F-1.9°C 77% 8.0 mph N12.9 kmh N 15.0 mph24.1 kmh 30.28 in1025.4 mb 0.00 in0.0 mm 0.00 in0.0 mm 0.00 in0.0 mm
12:20 PM 35.0°F1.7°C 28.5°F-1.9°C 77% 3.0 mph NE4.8 kmh NE 15.0 mph24.1 kmh 30.28 in1025.4 mb 0.00 in0.0 mm 0.00 in0.0 mm 0.00 in0.0 mm
12:22 PM 35.1°F1.7°C 28.6°F-1.9°C 77% 8.0 mph N12.9 kmh N 15.0 mph24.1 kmh 30.28 in1025.4 mb 0.00 in0.0 mm 0.00 in0.0 mm 0.00 in0.0 mm
12:24 PM 35.2°F1.8°C 28.7°F-1.8°C 77% 3.0 mph NNE4.8 kmh NNE 15.0 mph24.1 kmh 30.28 in1025.4 mb 0.00 in0.0 mm 0.00 in0.0 mm 0.00 in0.0 mm
12:26 PM 35.3°F1.8°C 28.8°F-1.8°C 77% 6.0 mph N9.7 kmh N 15.0 mph24.1 kmh 30.28 in1025.4 mb 0.00 in0.0 mm 0.00 in0.0 mm 0.00 in0.0 mm
12:28 PM 35.3°F1.8°C 28.8°F-1.8°C 77% 4.0 mph NE6.4 kmh NE 15.0 mph24.1 kmh 30.28 in1025.4 mb 0.00 in0.0 mm 0.00 in0.0 mm 0.00 in0.0 mm
12:29 PM 35.3°F1.8°C 28.8°F-1.8°C 77% 8.0 mph NNW12.9 kmh NNW 15.0 mph24.1 kmh 30.28 in1025.4 mb 0.00 in0.0 mm 0.00 in0.0 mm 0.00 in0.0 mm
12:32 PM 35.2°F1.8°C 28.7°F-1.8°C 77% 12.0 mph N19.3 kmh N 15.0 mph24.1 kmh 30.28 in1025.4 mb 0.00 in0.0 mm 0.00 in0.0 mm 0.00 in0.0 mm
12:34 PM 35.1°F1.7°C 28.6°F-1.9°C 77% 5.0 mph N8.0 kmh N 16.0 mph25.7 kmh 30.28 in1025.4 mb 0.00 in0.0 mm 0.00 in0.0 mm 0.00 in0.0 mm
12:36 PM 35.1°F1.7°C 28.6°F-1.9°C 77% 12.0 mph NNW19.3 kmh NNW 16.0 mph25.7 kmh 30.28 in1025.4 mb 0.00 in0.0 mm 0.00 in0.0 mm 0.00 in0.0 mm
12:38 PM 35.0°F1.7°C 28.5°F-1.9°C 77% 5.0 mph N8.0 kmh N 16.0 mph25.7 kmh 30.28 in1025.4 mb 0.00 in0.0 mm 0.00 in0.0 mm 0.00 in0.0 mm
12:40 PM 35.0°F1.7°C 28.5°F-1.9°C 77% 13.0 mph NNW20.9 kmh NNW 16.0 mph25.7 kmh 30.28 in1025.4 mb 0.00 in0.0 mm 0.00 in0.0 mm 0.00 in0.0 mm
12:42 PM 35.0°F1.7°C 28.5°F-1.9°C 77% 14.0 mph NW22.5 kmh NW 16.0 mph25.7 kmh 30.27 in1025.1 mb 0.00 in0.0 mm 0.00 in0.0 mm 0.00 in0.0 mm
12:44 PM 35.0°F1.7°C 28.5°F-1.9°C 77% 4.0 mph N6.4 kmh N 16.0 mph25.7 kmh 30.27 in1025.1 mb 0.00 in0.0 mm 0.00 in0.0 mm 0.00 in0.0 mm
12:46 PM 35.1°F1.7°C 28.6°F-1.9°C 77% 13.0 mph NNW20.9 kmh NNW 16.0 mph25.7 kmh 30.27 in1025.1 mb 0.00 in0.0 mm 0.00 in0.0 mm 0.00 in0.0 mm
12:48 PM 35.1°F1.7°C 28.6°F-1.9°C 77% 12.0 mph NNW19.3 kmh NNW 16.0 mph25.7 kmh 30.27 in1025.1 mb 0.00 in0.0 mm 0.00 in0.0 mm 0.00 in0.0 mm
12:50 PM 35.0°F1.7°C 28.5°F-1.9°C 77% 9.0 mph N14.5 kmh N 16.0 mph25.7 kmh 30.27 in1025.1 mb 0.00 in0.0 mm 0.00 in0.0 mm 0.00 in0.0 mm
12:52 PM 35.0°F1.7°C 28.5°F-1.9°C 77% 8.0 mph NW12.9 kmh NW 16.0 mph25.7 kmh 30.26 in1024.7 mb 0.00 in0.0 mm 0.00 in0.0 mm 0.00 in0.0 mm
12:54 PM 35.0°F1.7°C 28.5°F-1.9°C 77% 11.0 mph NE17.7 kmh NE 16.0 mph25.7 kmh 30.27 in1025.1 mb 0.00 in0.0 mm 0.00 in0.0 mm 0.00 in0.0 mm
12:56 PM 35.0°F1.7°C 28.5°F-1.9°C 77% 10.0 mph N16.1 kmh N 16.0 mph25.7 kmh 30.27 in1025.1 mb 0.00 in0.0 mm 0.00 in0.0 mm 0.00 in0.0 mm
12:58 PM 34.9°F1.6°C 28.4°F-2.0°C 77% 12.0 mph NW19.3 kmh NW 16.0 mph25.7 kmh 30.26 in1024.7 mb 0.00 in0.0 mm 0.00 in0.0 mm 0.00 in0.0 mm
01:00 PM 35.0°F1.7°C 28.5°F-1.9°C 77% 8.0 mph NNW12.9 kmh NNW 16.0 mph25.7 kmh 30.26 in1024.7 mb 0.00 in0.0 mm 0.00 in0.0 mm 0.00 in0.0 mm
01:02 PM 35.0°F1.7°C 28.5°F-1.9°C 77% 9.0 mph N14.5 kmh N 12.0 mph19.3 kmh 30.26 in1024.7 mb 0.00 in0.0 mm 0.00 in0.0 mm 0.00 in0.0 mm
01:04 PM 35.0°F1.7°C 28.5°F-1.9°C 77% 10.0 mph N16.1 kmh N 14.0 mph22.5 kmh 30.26 in1024.7 mb 0.00 in0.0 mm 0.00 in0.0 mm 0.00 in0.0 mm
01:06 PM 35.1°F1.7°C 28.6°F-1.9°C 77% 10.0 mph NNW16.1 kmh NNW 16.0 mph25.7 kmh 30.26 in1024.7 mb 0.00 in0.0 mm 0.00 in0.0 mm 0.00 in0.0 mm
01:08 PM 35.1°F1.7°C 28.6°F-1.9°C 77% 13.0 mph NW20.9 kmh NW 16.0 mph25.7 kmh 30.26 in1024.7 mb 0.00 in0.0 mm 0.00 in0.0 mm 0.00 in0.0 mm
01:10 PM 35.1°F1.7°C 28.9°F-1.7°C 78% 4.0 mph N6.4 kmh N 16.0 mph25.7 kmh 30.26 in1024.7 mb 0.00 in0.0 mm 0.00 in0.0 mm 0.00 in0.0 mm
01:12 PM 35.3°F1.8°C 29.1°F-1.6°C 78% 7.0 mph NE11.3 kmh NE 16.0 mph25.7 kmh 30.26 in1024.7 mb 0.00 in0.0 mm 0.00 in0.0 mm 0.00 in0.0 mm
01:14 PM 35.2°F1.8°C 28.7°F-1.8°C 77% 10.0 mph N16.1 kmh N 18.0 mph29.0 kmh 30.25 in1024.4 mb 0.00 in0.0 mm 0.00 in0.0 mm 0.00 in0.0 mm
01:16 PM 35.2°F1.8°C 28.7°F-1.8°C 77% 4.0 mph NNE6.4 kmh NNE 18.0 mph29.0 kmh 30.25 in1024.4 mb 0.00 in0.0 mm 0.00 in0.0 mm 0.00 in0.0 mm
01:18 PM 35.2°F1.8°C 28.7°F-1.8°C 77% 8.0 mph NW12.9 kmh NW 18.0 mph29.0 kmh 30.25 in1024.4 mb 0.00 in0.0 mm 0.00 in0.0 mm 0.00 in0.0 mm
01:20 PM 35.2°F1.8°C 28.7°F-1.8°C 77% 4.0 mph N6.4 kmh N 18.0 mph29.0 kmh 30.25 in1024.4 mb 0.00 in0.0 mm 0.00 in0.0 mm 0.00 in0.0 mm
01:22 PM 35.2°F1.8°C 29.0°F-1.7°C 78% 8.0 mph N12.9 kmh N 18.0 mph29.0 kmh 30.25 in1024.4 mb 0.00 in0.0 mm 0.00 in0.0 mm 0.00 in0.0 mm
01:24 PM 35.3°F1.8°C 28.8°F-1.8°C 77% 5.0 mph N8.0 kmh N 18.0 mph29.0 kmh 30.25 in1024.4 mb 0.00 in0.0 mm 0.00 in0.0 mm 0.00 in0.0 mm
01:26 PM 35.3°F1.8°C 28.8°F-1.8°C 77% 11.0 mph N17.7 kmh N 18.0 mph29.0 kmh 30.25 in1024.4 mb 0.00 in0.0 mm 0.00 in0.0 mm 0.00 in0.0 mm
01:28 PM 35.3°F1.8°C 28.8°F-1.8°C 77% 6.0 mph NW9.7 kmh NW 18.0 mph29.0 kmh 30.25 in1024.4 mb 0.00 in0.0 mm 0.00 in0.0 mm 0.00 in0.0 mm
01:30 PM 35.5°F1.9°C 29.0°F-1.7°C 77% 9.0 mph NNW14.5 kmh NNW 10.0 mph16.1 kmh 30.25 in1024.4 mb 0.00 in0.0 mm 0.00 in0.0 mm 0.00 in0.0 mm
01:32 PM 35.5°F1.9°C 28.7°F-1.8°C 76% 6.0 mph NNE9.7 kmh NNE 15.0 mph24.1 kmh 30.25 in1024.4 mb 0.00 in0.0 mm 0.00 in0.0 mm 0.00 in0.0 mm
01:34 PM 35.5°F1.9°C 29.0°F-1.7°C 77% 5.0 mph N8.0 kmh N 15.0 mph24.1 kmh 30.24 in1024.0 mb 0.00 in0.0 mm 0.00 in0.0 mm 0.00 in0.0 mm
01:36 PM 35.4°F1.9°C 28.9°F-1.7°C 77% 13.0 mph N20.9 kmh N 15.0 mph24.1 kmh 30.24 in1024.0 mb 0.00 in0.0 mm 0.00 in0.0 mm 0.00 in0.0 mm
01:38 PM 35.4°F1.9°C 28.9°F-1.7°C 77% 9.0 mph N14.5 kmh N 17.0 mph27.4 kmh 30.24 in1024.0 mb 0.00 in0.0 mm 0.00 in0.0 mm 0.00 in0.0 mm
01:40 PM 35.4°F1.9°C 28.9°F-1.7°C 77% 6.0 mph NE9.7 kmh NE 17.0 mph27.4 kmh 30.24 in1024.0 mb 0.00 in0.0 mm 0.00 in0.0 mm 0.00 in0.0 mm
01:42 PM 35.3°F1.8°C 28.8°F-1.8°C 77% 12.0 mph NW19.3 kmh NW 17.0 mph27.4 kmh 30.25 in1024.4 mb 0.00 in0.0 mm 0.00 in0.0 mm 0.00 in0.0 mm
01:44 PM 35.2°F1.8°C 28.7°F-1.8°C 77% 11.0 mph N17.7 kmh N 17.0 mph27.4 kmh 30.25 in1024.4 mb 0.00 in0.0 mm 0.00 in0.0 mm 0.00 in0.0 mm
01:46 PM 35.2°F1.8°C 28.7°F-1.8°C 77% 5.0 mph N8.0 kmh N 17.0 mph27.4 kmh 30.25 in1024.4 mb 0.00 in0.0 mm 0.00 in0.0 mm 0.00 in0.0 mm
01:48 PM 35.2°F1.8°C 28.7°F-1.8°C 77% 4.0 mph N6.4 kmh N 17.0 mph27.4 kmh 30.25 in1024.4 mb 0.00 in0.0 mm 0.00 in0.0 mm 0.00 in0.0 mm
01:50 PM 35.2°F1.8°C 29.0°F-1.7°C 78% 14.0 mph NNE22.5 kmh NNE 18.0 mph29.0 kmh 30.25 in1024.4 mb 0.00 in0.0 mm 0.00 in0.0 mm 0.00 in0.0 mm
01:52 PM 35.2°F1.8°C 29.0°F-1.7°C 78% 9.0 mph N14.5 kmh N 18.0 mph29.0 kmh 30.25 in1024.4 mb 0.00 in0.0 mm 0.00 in0.0 mm 0.00 in0.0 mm
01:54 PM 35.1°F1.7°C 28.6°F-1.9°C 77% 13.0 mph N20.9 kmh N 18.0 mph29.0 kmh 30.25 in1024.4 mb 0.00 in0.0 mm 0.00 in0.0 mm 0.00 in0.0 mm
01:56 PM 35.0°F1.7°C 28.9°F-1.7°C 78% 8.0 mph NNE12.9 kmh NNE 18.0 mph29.0 kmh 30.25 in1024.4 mb 0.00 in0.0 mm 0.00 in0.0 mm 0.00 in0.0 mm
01:58 PM 35.1°F1.7°C 28.9°F-1.7°C 78% 4.0 mph NNW6.4 kmh NNW 18.0 mph29.0 kmh 30.25 in1024.4 mb 0.00 in0.0 mm 0.00 in0.0 mm 0.00 in0.0 mm
02:00 PM 35.2°F1.8°C 29.0°F-1.7°C 78% 10.0 mph NW16.1 kmh NW 12.0 mph19.3 kmh 30.25 in1024.4 mb 0.00 in0.0 mm 0.00 in0.0 mm 0.00 in0.0 mm
02:02 PM 35.2°F1.8°C 29.0°F-1.7°C 78% 4.0 mph NW6.4 kmh NW 12.0 mph19.3 kmh 30.24 in1024.0 mb 0.00 in0.0 mm 0.00 in0.0 mm 0.00 in0.0 mm
02:04 PM 35.3°F1.8°C 29.1°F-1.6°C 78% 10.0 mph N16.1 kmh N 13.0 mph20.9 kmh 30.24 in1024.0 mb 0.00 in0.0 mm 0.00 in0.0 mm 0.00 in0.0 mm
02:06 PM 35.3°F1.8°C 29.1°F-1.6°C 78% 10.0 mph NW16.1 kmh NW 13.0 mph20.9 kmh 30.24 in1024.0 mb 0.00 in0.0 mm 0.00 in0.0 mm 0.00 in0.0 mm
02:08 PM 35.3°F1.8°C 29.1°F-1.6°C 78% 5.0 mph NNW8.0 kmh NNW 14.0 mph22.5 kmh 30.24 in1024.0 mb 0.00 in0.0 mm 0.00 in0.0 mm 0.00 in0.0 mm
02:10 PM 35.3°F1.8°C 29.1°F-1.6°C 78% 6.0 mph N9.7 kmh N 14.0 mph22.5 kmh 30.25 in1024.4 mb 0.00 in0.0 mm 0.00 in0.0 mm 0.00 in0.0 mm
02:12 PM 35.5°F1.9°C 29.3°F-1.5°C 78% 4.0 mph NE6.4 kmh NE 14.0 mph22.5 kmh 30.25 in1024.4 mb 0.00 in0.0 mm 0.00 in0.0 mm 0.00 in0.0 mm
02:14 PM 35.5°F1.9°C 29.0°F-1.7°C 77% 8.0 mph N12.9 kmh N 15.0 mph24.1 kmh 30.25 in1024.4 mb 0.00 in0.0 mm 0.00 in0.0 mm 0.00 in0.0 mm
02:16 PM 35.4°F1.9°C 28.9°F-1.7°C 77% 12.0 mph N19.3 kmh N 16.0 mph25.7 kmh 30.25 in1024.4 mb 0.00 in0.0 mm 0.00 in0.0 mm 0.00 in0.0 mm
02:18 PM 35.3°F1.8°C 29.1°F-1.6°C 78% 5.0 mph NNE8.0 kmh NNE 16.0 mph25.7 kmh 30.25 in1024.4 mb 0.00 in0.0 mm 0.00 in0.0 mm 0.00 in0.0 mm
02:20 PM 35.3°F1.8°C 29.1°F-1.6°C 78% 11.0 mph NNE17.7 kmh NNE 16.0 mph25.7 kmh 30.25 in1024.4 mb 0.00 in0.0 mm 0.00 in0.0 mm 0.00 in0.0 mm
02:22 PM 35.2°F1.8°C 29.0°F-1.7°C 78% 5.0 mph NW8.0 kmh NW 16.0 mph25.7 kmh 30.24 in1024.0 mb 0.00 in0.0 mm 0.00 in0.0 mm 0.00 in0.0 mm
02:24 PM 35.3°F1.8°C 29.1°F-1.6°C 78% 12.0 mph NW19.3 kmh NW 16.0 mph25.7 kmh 30.24 in1024.0 mb 0.00 in0.0 mm 0.00 in0.0 mm 0.00 in0.0 mm
02:26 PM 35.3°F1.8°C 29.1°F-1.6°C 78% 4.0 mph NW6.4 kmh NW 17.0 mph27.4 kmh 30.24 in1024.0 mb 0.00 in0.0 mm 0.00 in0.0 mm 0.00 in0.0 mm
02:28 PM 35.3°F1.8°C 29.1°F-1.6°C 78% 8.0 mph N12.9 kmh N 17.0 mph27.4 kmh 30.24 in1024.0 mb 0.00 in0.0 mm 0.00 in0.0 mm 0.00 in0.0 mm
02:30 PM 35.3°F1.8°C 29.1°F-1.6°C 78% 9.0 mph NNE14.5 kmh NNE 9.0 mph14.5 kmh 30.24 in1024.0 mb 0.00 in0.0 mm 0.00 in0.0 mm 0.00 in0.0 mm
02:32 PM 35.3°F1.8°C 29.1°F-1.6°C 78% 7.0 mph NNE11.3 kmh NNE 11.0 mph17.7 kmh 30.24 in1024.0 mb 0.00 in0.0 mm 0.00 in0.0 mm 0.00 in0.0 mm
02:34 PM 35.4°F1.9°C 29.2°F-1.6°C 78% 5.0 mph NNE8.0 kmh NNE 12.0 mph19.3 kmh 30.24 in1024.0 mb 0.00 in0.0 mm 0.00 in0.0 mm 0.00 in0.0 mm
02:36 PM 35.4°F1.9°C 29.2°F-1.6°C 78% 5.0 mph N8.0 kmh N 12.0 mph19.3 kmh 30.24 in1024.0 mb 0.00 in0.0 mm 0.00 in0.0 mm 0.00 in0.0 mm
02:38 PM 35.5°F1.9°C 29.3°F-1.5°C 78% 9.0 mph N14.5 kmh N 16.0 mph25.7 kmh 30.24 in1024.0 mb 0.00 in0.0 mm 0.00 in0.0 mm 0.00 in0.0 mm
02:40 PM 35.5°F1.9°C 29.3°F-1.5°C 78% 5.0 mph NE8.0 kmh NE 16.0 mph25.7 kmh 30.24 in1024.0 mb 0.00 in0.0 mm 0.00 in0.0 mm 0.00 in0.0 mm
02:42 PM 35.5°F1.9°C 29.0°F-1.7°C 77% 9.0 mph NE14.5 kmh NE 16.0 mph25.7 kmh 30.24 in1024.0 mb 0.00 in0.0 mm 0.00 in0.0 mm 0.00 in0.0 mm
02:44 PM 35.5°F1.9°C 29.0°F-1.7°C 77% 5.0 mph N8.0 kmh N 17.0 mph27.4 kmh 30.24 in1024.0 mb 0.00 in0.0 mm 0.00 in0.0 mm 0.00 in0.0 mm
02:46 PM 35.5°F1.9°C 29.3°F-1.5°C 78% 9.0 mph NW14.5 kmh NW 17.0 mph27.4 kmh 30.24 in1024.0 mb 0.00 in0.0 mm 0.00 in0.0 mm 0.00 in0.0 mm
02:48 PM 35.6°F2.0°C 29.4°F-1.4°C 78% 11.0 mph NNW17.7 kmh NNW 17.0 mph27.4 kmh 30.24 in1024.0 mb 0.00 in0.0 mm 0.00 in0.0 mm 0.00 in0.0 mm
02:50 PM 35.6°F2.0°C 29.4°F-1.4°C 78% 2.0 mph NNW3.2 kmh NNW 17.0 mph27.4 kmh 30.24 in1024.0 mb 0.00 in0.0 mm 0.00 in0.0 mm 0.00 in0.0 mm
02:52 PM 35.6°F2.0°C 29.4°F-1.4°C 78% 2.0 mph N3.2 kmh N 17.0 mph27.4 kmh 30.24 in1024.0 mb 0.00 in0.0 mm 0.00 in0.0 mm 0.00 in0.0 mm
02:54 PM 35.6°F2.0°C 29.4°F-1.4°C 78% 11.0 mph N17.7 kmh N 17.0 mph27.4 kmh 30.24 in1024.0 mb 0.00 in0.0 mm 0.00 in0.0 mm 0.00 in0.0 mm
02:56 PM 35.7°F2.1°C 29.5°F-1.4°C 78% 12.0 mph NW19.3 kmh NW 17.0 mph27.4 kmh 30.24 in1024.0 mb 0.00 in0.0 mm 0.00 in0.0 mm 0.00 in0.0 mm
02:58 PM 35.7°F2.1°C 29.2°F-1.6°C 77% 12.0 mph NNW19.3 kmh NNW 17.0 mph27.4 kmh 30.24 in1024.0 mb 0.00 in0.0 mm 0.00 in0.0 mm 0.00 in0.0 mm
03:00 PM 35.6°F2.0°C 29.4°F-1.4°C 78% 13.0 mph NW20.9 kmh NW 13.0 mph20.9 kmh 30.24 in1024.0 mb 0.00 in0.0 mm 0.00 in0.0 mm 0.00 in0.0 mm
03:02 PM 35.6°F2.0°C 29.4°F-1.4°C 78% 3.0 mph NNW4.8 kmh NNW 14.0 mph22.5 kmh 30.24 in1024.0 mb 0.00 in0.0 mm 0.00 in0.0 mm 0.00 in0.0 mm
03:04 PM 35.7°F2.1°C 29.5°F-1.4°C 78% 12.0 mph NNW19.3 kmh NNW 14.0 mph22.5 kmh 30.24 in1024.0 mb 0.00 in0.0 mm 0.00 in0.0 mm 0.00 in0.0 mm
03:06 PM 35.8°F2.1°C 29.3°F-1.5°C 77% 5.0 mph NNW8.0 kmh NNW 14.0 mph22.5 kmh 30.24 in1024.0 mb 0.00 in0.0 mm 0.00 in0.0 mm 0.00 in0.0 mm
03:08 PM 35.6°F2.0°C 29.1°F-1.6°C 77% 3.0 mph N4.8 kmh N 15.0 mph24.1 kmh 30.24 in1024.0 mb 0.00 in0.0 mm 0.00 in0.0 mm 0.00 in0.0 mm
03:10 PM 35.6°F2.0°C 29.1°F-1.6°C 77% 10.0 mph NW16.1 kmh NW 15.0 mph24.1 kmh 30.25 in1024.4 mb 0.00 in0.0 mm 0.00 in0.0 mm 0.00 in0.0 mm
03:12 PM 35.6°F2.0°C 29.1°F-1.6°C 77% 15.0 mph NNW24.1 kmh NNW 17.0 mph27.4 kmh 30.24 in1024.0 mb 0.00 in0.0 mm 0.00 in0.0 mm 0.00 in0.0 mm
03:14 PM 35.5°F1.9°C 29.0°F-1.7°C 77% 5.0 mph N8.0 kmh N 18.0 mph29.0 kmh 30.24 in1024.0 mb 0.00 in0.0 mm 0.00 in0.0 mm 0.00 in0.0 mm
03:16 PM 35.5°F1.9°C 29.3°F-1.5°C 78% 14.0 mph N22.5 kmh N 18.0 mph29.0 kmh 30.24 in1024.0 mb 0.00 in0.0 mm 0.00 in0.0 mm 0.00 in0.0 mm
03:18 PM 35.5°F1.9°C 29.3°F-1.5°C 78% 9.0 mph NNW14.5 kmh NNW 18.0 mph29.0 kmh 30.24 in1024.0 mb 0.00 in0.0 mm 0.00 in0.0 mm 0.00 in0.0 mm
03:20 PM 35.4°F1.9°C 29.2°F-1.6°C 78% 15.0 mph NNW24.1 kmh NNW 18.0 mph29.0 kmh 30.24 in1024.0 mb 0.00 in0.0 mm 0.00 in0.0 mm 0.00 in0.0 mm
03:22 PM 35.3°F1.8°C 29.1°F-1.6°C 78% 2.0 mph NNW3.2 kmh NNW 18.0 mph29.0 kmh 30.24 in1024.0 mb 0.00 in0.0 mm 0.00 in0.0 mm 0.00 in0.0 mm
03:24 PM 35.4°F1.9°C 29.2°F-1.6°C 78% 14.0 mph N22.5 kmh N 18.0 mph29.0 kmh 30.24 in1024.0 mb 0.00 in0.0 mm 0.00 in0.0 mm 0.00 in0.0 mm
03:26 PM 35.3°F1.8°C 29.1°F-1.6°C 78% 13.0 mph NW20.9 kmh NW 18.0 mph29.0 kmh 30.24 in1024.0 mb 0.00 in0.0 mm 0.00 in0.0 mm 0.00 in0.0 mm
03:28 PM 35.3°F1.8°C 29.1°F-1.6°C 78% 8.0 mph NW12.9 kmh NW 18.0 mph29.0 kmh 30.24 in1024.0 mb 0.00 in0.0 mm 0.00 in0.0 mm 0.00 in0.0 mm
03:30 PM 35.3°F1.8°C 29.1°F-1.6°C 78% 3.0 mph NNE4.8 kmh NNE 18.0 mph29.0 kmh 30.24 in1024.0 mb 0.00 in0.0 mm 0.00 in0.0 mm 0.00 in0.0 mm
03:32 PM 35.4°F1.9°C 29.2°F-1.6°C 78% 11.0 mph NW17.7 kmh NW 13.0 mph20.9 kmh 30.24 in1024.0 mb 0.00 in0.0 mm 0.00 in0.0 mm 0.00 in0.0 mm
03:34 PM 35.3°F1.8°C 29.1°F-1.6°C 78% 6.0 mph NNW9.7 kmh NNW 19.0 mph30.6 kmh 30.24 in1024.0 mb 0.00 in0.0 mm 0.00 in0.0 mm 0.00 in0.0 mm
03:36 PM 35.3°F1.8°C 29.1°F-1.6°C 78% 12.0 mph N19.3 kmh N 19.0 mph30.6 kmh 30.24 in1024.0 mb 0.00 in0.0 mm 0.00 in0.0 mm 0.00 in0.0 mm
03:38 PM 35.4°F1.9°C 29.2°F-1.6°C 78% 9.0 mph N14.5 kmh N 19.0 mph30.6 kmh 30.24 in1024.0 mb 0.00 in0.0 mm 0.00 in0.0 mm 0.00 in0.0 mm
03:40 PM 35.3°F1.8°C 29.1°F-1.6°C 78% 12.0 mph N19.3 kmh N 19.0 mph30.6 kmh 30.24 in1024.0 mb 0.00 in0.0 mm 0.00 in0.0 mm 0.00 in0.0 mm
03:42 PM 35.3°F1.8°C 29.1°F-1.6°C 78% 4.0 mph N6.4 kmh N 19.0 mph30.6 kmh 30.24 in1024.0 mb 0.00 in0.0 mm 0.00 in0.0 mm 0.00 in0.0 mm
03:44 PM 35.3°F1.8°C 29.5°F-1.4°C 79% 6.0 mph N9.7 kmh N 19.0 mph30.6 kmh 30.24 in1024.0 mb 0.00 in0.0 mm 0.00 in0.0 mm 0.00 in0.0 mm
03:46 PM 35.4°F1.9°C 29.2°F-1.6°C 78% 10.0 mph NE16.1 kmh NE 19.0 mph30.6 kmh 30.24 in1024.0 mb 0.00 in0.0 mm 0.00 in0.0 mm 0.00 in0.0 mm
03:48 PM 35.4°F1.9°C 29.2°F-1.6°C 78% 5.0 mph N8.0 kmh N 19.0 mph30.6 kmh 30.24 in1024.0 mb 0.00 in0.0 mm 0.00 in0.0 mm 0.00 in0.0 mm
03:50 PM 35.3°F1.8°C 29.1°F-1.6°C 78% 13.0 mph N20.9 kmh N 19.0 mph30.6 kmh 30.24 in1024.0 mb 0.00 in0.0 mm 0.00 in0.0 mm 0.00 in0.0 mm
03:52 PM 35.2°F1.8°C 29.0°F-1.7°C 78% 5.0 mph NNW8.0 kmh NNW 19.0 mph30.6 kmh 30.24 in1024.0 mb 0.00 in0.0 mm 0.00 in0.0 mm 0.00 in0.0 mm
03:54 PM 35.2°F1.8°C 29.0°F-1.7°C 78% 6.0 mph N9.7 kmh N 19.0 mph30.6 kmh 30.24 in1024.0 mb 0.00 in0.0 mm 0.00 in0.0 mm 0.00 in0.0 mm
03:56 PM 35.3°F1.8°C 29.5°F-1.4°C 79% 14.0 mph N22.5 kmh N 19.0 mph30.6 kmh 30.25 in1024.4 mb 0.00 in0.0 mm 0.00 in0.0 mm 0.00 in0.0 mm
03:58 PM 35.3°F1.8°C 29.1°F-1.6°C 78% 2.0 mph N3.2 kmh N 19.0 mph30.6 kmh 30.24 in1024.0 mb 0.00 in0.0 mm 0.00 in0.0 mm 0.00 in0.0 mm
04:00 PM 35.3°F1.8°C 29.1°F-1.6°C 78% 6.0 mph NE9.7 kmh NE 19.0 mph30.6 kmh 30.24 in1024.0 mb 0.00 in0.0 mm 0.00 in0.0 mm 0.00 in0.0 mm
04:02 PM 35.3°F1.8°C 29.1°F-1.6°C 78% 12.0 mph NNW19.3 kmh NNW 12.0 mph19.3 kmh 30.23 in1023.7 mb 0.00 in0.0 mm 0.00 in0.0 mm 0.00 in0.0 mm
04:04 PM 35.1°F1.7°C 28.9°F-1.7°C 78% 8.0 mph N12.9 kmh N 13.0 mph20.9 kmh 30.23 in1023.7 mb 0.00 in0.0 mm 0.00 in0.0 mm 0.00 in0.0 mm
04:06 PM 35.1°F1.7°C 28.9°F-1.7°C 78% 9.0 mph NNW14.5 kmh NNW 13.0 mph20.9 kmh 30.23 in1023.7 mb 0.00 in0.0 mm 0.00 in0.0 mm 0.00 in0.0 mm
04:08 PM 35.1°F1.7°C 29.3°F-1.5°C 79% 8.0 mph N12.9 kmh N 14.0 mph22.5 kmh 30.23 in1023.7 mb 0.00 in0.0 mm 0.00 in0.0 mm 0.00 in0.0 mm
04:10 PM 35.1°F1.7°C 29.3°F-1.5°C 79% 3.0 mph NE4.8 kmh NE 14.0 mph22.5 kmh 30.23 in1023.7 mb 0.00 in0.0 mm 0.00 in0.0 mm 0.00 in0.0 mm
04:12 PM 35.1°F1.7°C 29.3°F-1.5°C 79% 11.0 mph N17.7 kmh N 14.0 mph22.5 kmh 30.23 in1023.7 mb 0.00 in0.0 mm 0.00 in0.0 mm 0.00 in0.0 mm
04:14 PM 35.1°F1.7°C 28.9°F-1.7°C 78% 5.0 mph NNE8.0 kmh NNE 14.0 mph22.5 kmh 30.23 in1023.7 mb 0.00 in0.0 mm 0.00 in0.0 mm 0.00 in0.0 mm
04:16 PM 35.1°F1.7°C 28.9°F-1.7°C 78% 9.0 mph NE14.5 kmh NE 17.0 mph27.4 kmh 30.23 in1023.7 mb 0.00 in0.0 mm 0.00 in0.0 mm 0.00 in0.0 mm
04:18 PM 35.0°F1.7°C 28.9°F-1.7°C 78% 9.0 mph N14.5 kmh N 17.0 mph27.4 kmh 30.23 in1023.7 mb 0.00 in0.0 mm 0.00 in0.0 mm 0.00 in0.0 mm
04:20 PM 35.0°F1.7°C 28.9°F-1.7°C 78% 9.0 mph NE14.5 kmh NE 17.0 mph27.4 kmh 30.24 in1024.0 mb 0.00 in0.0 mm 0.00 in0.0 mm 0.00 in0.0 mm
04:22 PM 34.9°F1.6°C 28.8°F-1.8°C 78% 5.0 mph N8.0 kmh N 17.0 mph27.4 kmh 30.24 in1024.0 mb 0.00 in0.0 mm 0.00 in0.0 mm 0.00 in0.0 mm
04:24 PM 35.0°F1.7°C 29.2°F-1.6°C 79% 10.0 mph N16.1 kmh N 17.0 mph27.4 kmh 30.24 in1024.0 mb 0.00 in0.0 mm 0.00 in0.0 mm 0.00 in0.0 mm
04:26 PM 35.0°F1.7°C 29.2°F-1.6°C 79% 9.0 mph NW14.5 kmh NW 17.0 mph27.4 kmh 30.24 in1024.0 mb 0.00 in0.0 mm 0.00 in0.0 mm 0.00 in0.0 mm
04:28 PM 35.0°F1.7°C 29.2°F-1.6°C 79% 3.0 mph NNW4.8 kmh NNW 17.0 mph27.4 kmh 30.25 in1024.4 mb 0.00 in0.0 mm 0.00 in0.0 mm 0.00 in0.0 mm
04:30 PM 35.0°F1.7°C 28.9°F-1.7°C 78% 11.0 mph NW17.7 kmh NW 11.0 mph17.7 kmh 30.25 in1024.4 mb 0.00 in0.0 mm 0.00 in0.0 mm 0.00 in0.0 mm
04:32 PM 34.8°F1.6°C 28.7°F-1.8°C 78% 6.0 mph NNE9.7 kmh NNE 12.0 mph19.3 kmh 30.25 in1024.4 mb 0.00 in0.0 mm 0.00 in0.0 mm 0.00 in0.0 mm
04:34 PM 34.8°F1.6°C 29.0°F-1.7°C 79% 6.0 mph N9.7 kmh N 12.0 mph19.3 kmh 30.24 in1024.0 mb 0.00 in0.0 mm 0.00 in0.0 mm 0.00 in0.0 mm
04:36 PM 34.8°F1.6°C 29.0°F-1.7°C 79% 5.0 mph NNW8.0 kmh NNW 12.0 mph19.3 kmh 30.25 in1024.4 mb 0.00 in0.0 mm 0.00 in0.0 mm 0.00 in0.0 mm
04:38 PM 34.8°F1.6°C 29.0°F-1.7°C 79% 10.0 mph NNW16.1 kmh NNW 12.0 mph19.3 kmh 30.25 in1024.4 mb 0.00 in0.0 mm 0.00 in0.0 mm 0.00 in0.0 mm
04:40 PM 34.8°F1.6°C 29.0°F-1.7°C 79% 8.0 mph N12.9 kmh N 14.0 mph22.5 kmh 30.25 in1024.4 mb 0.00 in0.0 mm 0.00 in0.0 mm 0.00 in0.0 mm
04:42 PM 34.7°F1.5°C 28.9°F-1.7°C 79% 3.0 mph NW4.8 kmh NW 14.0 mph22.5 kmh 30.25 in1024.4 mb 0.00 in0.0 mm 0.00 in0.0 mm 0.00 in0.0 mm
04:44 PM 34.7°F1.5°C 28.9°F-1.7°C 79% 2.0 mph N3.2 kmh N 14.0 mph22.5 kmh 30.25 in1024.4 mb 0.00 in0.0 mm 0.00 in0.0 mm 0.00 in0.0 mm
04:46 PM 34.7°F1.5°C 28.9°F-1.7°C 79% 2.0 mph NNW3.2 kmh NNW 14.0 mph22.5 kmh 30.25 in1024.4 mb 0.00 in0.0 mm 0.00 in0.0 mm 0.00 in0.0 mm
04:48 PM 34.7°F1.5°C 29.2°F-1.6°C 80% 5.0 mph NNW8.0 kmh NNW 14.0 mph22.5 kmh 30.25 in1024.4 mb 0.00 in0.0 mm 0.00 in0.0 mm 0.00 in0.0 mm
04:50 PM 34.7°F1.5°C 29.2°F-1.6°C 80% 6.0 mph NE9.7 kmh NE 14.0 mph22.5 kmh 30.25 in1024.4 mb 0.00 in0.0 mm 0.00 in0.0 mm 0.00 in0.0 mm
04:52 PM 34.7°F1.5°C 28.9°F-1.7°C 79% 3.0 mph N4.8 kmh N 14.0 mph22.5 kmh 30.25 in1024.4 mb 0.00 in0.0 mm 0.00 in0.0 mm 0.00 in0.0 mm
04:54 PM 34.7°F1.5°C 28.9°F-1.7°C 79% 10.0 mph N16.1 kmh N 14.0 mph22.5 kmh 30.25 in1024.4 mb 0.00 in0.0 mm 0.00 in0.0 mm 0.00 in0.0 mm
04:56 PM 34.6°F1.4°C 28.8°F-1.8°C 79% 8.0 mph N12.9 kmh N 14.0 mph22.5 kmh 30.25 in1024.4 mb 0.00 in0.0 mm 0.00 in0.0 mm 0.00 in0.0 mm
04:58 PM 34.5°F1.4°C 28.7°F-1.8°C 79% 5.0 mph NNW8.0 kmh NNW 14.0 mph22.5 kmh 30.24 in1024.0 mb 0.00 in0.0 mm 0.00 in0.0 mm 0.00 in0.0 mm
05:00 PM 34.5°F1.4°C 28.7°F-1.8°C 79% 4.0 mph N6.4 kmh N 14.0 mph22.5 kmh 30.24 in1024.0 mb 0.00 in0.0 mm 0.00 in0.0 mm 0.00 in0.0 mm
05:02 PM 34.6°F1.4°C 29.1°F-1.6°C 80% 8.0 mph N12.9 kmh N 12.0 mph19.3 kmh 30.24 in1024.0 mb 0.00 in0.0 mm 0.00 in0.0 mm 0.00 in0.0 mm
05:04 PM 34.5°F1.4°C 28.7°F-1.8°C 79% 8.0 mph NNE12.9 kmh NNE 12.0 mph19.3 kmh 30.24 in1024.0 mb 0.00 in0.0 mm 0.00 in0.0 mm 0.00 in0.0 mm
05:06 PM 34.5°F1.4°C 28.7°F-1.8°C 79% 11.0 mph NW17.7 kmh NW 12.0 mph19.3 kmh 30.24 in1024.0 mb 0.00 in0.0 mm 0.00 in0.0 mm 0.00 in0.0 mm
05:08 PM 34.4°F1.3°C 28.9°F-1.7°C 80% 4.0 mph N6.4 kmh N 12.0 mph19.3 kmh 30.24 in1024.0 mb 0.00 in0.0 mm 0.00 in0.0 mm 0.00 in0.0 mm
05:10 PM 34.5°F1.4°C 29.0°F-1.7°C 80% 12.0 mph NW19.3 kmh NW 12.0 mph19.3 kmh 30.25 in1024.4 mb 0.00 in0.0 mm 0.00 in0.0 mm 0.00 in0.0 mm
05:12 PM 34.5°F1.4°C 29.0°F-1.7°C 80% 4.0 mph NNW6.4 kmh NNW 12.0 mph19.3 kmh 30.25 in1024.4 mb 0.00 in0.0 mm 0.00 in0.0 mm 0.00 in0.0 mm
05:14 PM 34.5°F1.4°C 29.0°F-1.7°C 80% 5.0 mph NNE8.0 kmh NNE 12.0 mph19.3 kmh 30.25 in1024.4 mb 0.00 in0.0 mm 0.00 in0.0 mm 0.00 in0.0 mm
05:16 PM 34.5°F1.4°C 29.0°F-1.7°C 80% 5.0 mph N8.0 kmh N 12.0 mph19.3 kmh 30.25 in1024.4 mb 0.00 in0.0 mm 0.00 in0.0 mm 0.00 in0.0 mm
05:18 PM 34.5°F1.4°C 29.0°F-1.7°C 80% 4.0 mph NNW6.4 kmh NNW 12.0 mph19.3 kmh 30.25 in1024.4 mb 0.00 in0.0 mm 0.00 in0.0 mm 0.00 in0.0 mm
05:20 PM 34.5°F1.4°C 29.0°F-1.7°C 80% 13.0 mph N20.9 kmh N 13.0 mph20.9 kmh 30.25 in1024.4 mb 0.00 in0.0 mm 0.00 in0.0 mm 0.00 in0.0 mm
05:22 PM 34.4°F1.3°C 28.9°F-1.7°C 80% 2.0 mph N3.2 kmh N 13.0 mph20.9 kmh 30.25 in1024.4 mb 0.00 in0.0 mm 0.00 in0.0 mm 0.00 in0.0 mm
05:24 PM 34.5°F1.4°C 29.0°F-1.7°C 80% 6.0 mph NW9.7 kmh NW 13.0 mph20.9 kmh 30.25 in1024.4 mb 0.00 in0.0 mm 0.00 in0.0 mm 0.00 in0.0 mm
05:26 PM 34.4°F1.3°C 28.9°F-1.7°C 80% 8.0 mph NW12.9 kmh NW 13.0 mph20.9 kmh 30.25 in1024.4 mb 0.00 in0.0 mm 0.00 in0.0 mm 0.00 in0.0 mm
05:28 PM 34.4°F1.3°C 28.9°F-1.7°C 80% 4.0 mph N6.4 kmh N 13.0 mph20.9 kmh 30.25 in1024.4 mb 0.00 in0.0 mm 0.00 in0.0 mm 0.00 in0.0 mm
05:30 PM 34.4°F1.3°C 28.9°F-1.7°C 80% 5.0 mph N8.0 kmh N 13.0 mph20.9 kmh 30.25 in1024.4 mb 0.00 in0.0 mm 0.00 in0.0 mm 0.00 in0.0 mm
05:32 PM 34.4°F1.3°C 28.9°F-1.7°C 80% 2.0 mph N3.2 kmh N 9.0 mph14.5 kmh 30.25 in1024.4 mb 0.00 in0.0 mm 0.00 in0.0 mm 0.00 in0.0 mm
05:34 PM 34.4°F1.3°C 28.9°F-1.7°C 80% 3.0 mph NE4.8 kmh NE 9.0 mph14.5 kmh 30.25 in1024.4 mb 0.00 in0.0 mm 0.00 in0.0 mm 0.00 in0.0 mm
05:36 PM 34.4°F1.3°C 28.9°F-1.7°C 80% 7.0 mph N11.3 kmh N 11.0 mph17.7 kmh 30.25 in1024.4 mb 0.00 in0.0 mm 0.00 in0.0 mm 0.00 in0.0 mm
05:38 PM 34.3°F1.3°C 28.8°F-1.8°C 80% 9.0 mph NW14.5 kmh NW 12.0 mph19.3 kmh 30.25 in1024.4 mb 0.00 in0.0 mm 0.00 in0.0 mm 0.00 in0.0 mm
05:40 PM 34.3°F1.3°C 28.8°F-1.8°C 80% 8.0 mph NNW12.9 kmh NNW 16.0 mph25.7 kmh 30.25 in1024.4 mb 0.00 in0.0 mm 0.00 in0.0 mm 0.00 in0.0 mm
05:42 PM 34.2°F1.2°C 28.7°F-1.8°C 80% 14.0 mph NNW22.5 kmh NNW 16.0 mph25.7 kmh 30.25 in1024.4 mb 0.00 in0.0 mm 0.00 in0.0 mm 0.00 in0.0 mm
05:44 PM 34.1°F1.2°C 28.6°F-1.9°C 80% 6.0 mph N9.7 kmh N 16.0 mph25.7 kmh 30.26 in1024.7 mb 0.00 in0.0 mm 0.00 in0.0 mm 0.00 in0.0 mm
05:46 PM 34.1°F1.2°C 28.6°F-1.9°C 80% 4.0 mph N6.4 kmh N 16.0 mph25.7 kmh 30.26 in1024.7 mb 0.00 in0.0 mm 0.00 in0.0 mm 0.00 in0.0 mm
05:48 PM 34.1°F1.2°C 28.6°F-1.9°C 80% 6.0 mph N9.7 kmh N 16.0 mph25.7 kmh 30.26 in1024.7 mb 0.00 in0.0 mm 0.00 in0.0 mm 0.00 in0.0 mm
05:50 PM 34.0°F1.1°C 28.5°F-1.9°C 80% 8.0 mph NNW12.9 kmh NNW 16.0 mph25.7 kmh 30.26 in1024.7 mb 0.00 in0.0 mm 0.00 in0.0 mm 0.00 in0.0 mm
05:52 PM 34.0°F1.1°C 28.5°F-1.9°C 80% 3.0 mph NW4.8 kmh NW 16.0 mph25.7 kmh 30.26 in1024.7 mb 0.00 in0.0 mm 0.00 in0.0 mm 0.00 in0.0 mm
05:54 PM 34.0°F1.1°C 28.5°F-1.9°C 80% 2.0 mph N3.2 kmh N 16.0 mph25.7 kmh 30.26 in1024.7 mb 0.00 in0.0 mm 0.00 in0.0 mm 0.00 in0.0 mm
05:56 PM 34.1°F1.2°C 28.6°F-1.9°C 80% 10.0 mph N16.1 kmh N 16.0 mph25.7 kmh 30.26 in1024.7 mb 0.00 in0.0 mm 0.00 in0.0 mm 0.00 in0.0 mm
05:58 PM 34.0°F1.1°C 28.5°F-1.9°C 80% 4.0 mph N6.4 kmh N 16.0 mph25.7 kmh 30.26 in1024.7 mb 0.00 in0.0 mm 0.00 in0.0 mm 0.00 in0.0 mm
06:00 PM 34.0°F1.1°C 28.5°F-1.9°C 80% 8.0 mph N12.9 kmh N 8.0 mph12.9 kmh 30.26 in1024.7 mb 0.00 in0.0 mm 0.00 in0.0 mm 0.00 in0.0 mm
06:02 PM 34.0°F1.1°C 28.5°F-1.9°C 80% 3.0 mph N4.8 kmh N 9.0 mph14.5 kmh 30.26 in1024.7 mb 0.00 in0.0 mm 0.00 in0.0 mm 0.00 in0.0 mm
06:04 PM 34.0°F1.1°C 28.5°F-1.9°C 80% 7.0 mph N11.3 kmh N 9.0 mph14.5 kmh 30.26 in1024.7 mb 0.00 in0.0 mm 0.00 in0.0 mm 0.00 in0.0 mm
06:06 PM 34.0°F1.1°C 28.5°F-1.9°C 80% 9.0 mph NNW14.5 kmh NNW 11.0 mph17.7 kmh 30.26 in1024.7 mb 0.00 in0.0 mm 0.00 in0.0 mm 0.00 in0.0 mm
06:08 PM 34.0°F1.1°C 28.2°F-2.1°C 79% 9.0 mph N14.5 kmh N 13.0 mph20.9 kmh 30.26 in1024.7 mb 0.00 in0.0 mm 0.00 in0.0 mm 0.00 in0.0 mm
06:10 PM 34.0°F1.1°C 28.2°F-2.1°C 79% 6.0 mph NW9.7 kmh NW 13.0 mph20.9 kmh 30.26 in1024.7 mb 0.00 in0.0 mm 0.00 in0.0 mm 0.00 in0.0 mm
06:12 PM 33.9°F1.1°C 28.4°F-2.0°C 80% 8.0 mph N12.9 kmh N 13.0 mph20.9 kmh 30.26 in1024.7 mb 0.00 in0.0 mm 0.00 in0.0 mm 0.00 in0.0 mm
06:14 PM 33.9°F1.1°C 28.4°F-2.0°C 80% 7.0 mph N11.3 kmh N 13.0 mph20.9 kmh 30.27 in1025.1 mb 0.00 in0.0 mm 0.00 in0.0 mm 0.00 in0.0 mm
06:16 PM 33.9°F1.1°C 28.4°F-2.0°C 80% 4.0 mph NNW6.4 kmh NNW 13.0 mph20.9 kmh 30.27 in1025.1 mb 0.00 in0.0 mm 0.00 in0.0 mm 0.00 in0.0 mm
06:18 PM 34.0°F1.1°C 28.5°F-1.9°C 80% 4.0 mph NNW6.4 kmh NNW 13.0 mph20.9 kmh 30.27 in1025.1 mb 0.00 in0.0 mm 0.00 in0.0 mm 0.00 in0.0 mm
06:20 PM 33.9°F1.1°C 28.4°F-2.0°C 80% 4.0 mph NW6.4 kmh NW 13.0 mph20.9 kmh 30.27 in1025.1 mb 0.00 in0.0 mm 0.00 in0.0 mm 0.00 in0.0 mm
06:22 PM 33.9°F1.1°C 28.4°F-2.0°C 80% 6.0 mph NW9.7 kmh NW 13.0 mph20.9 kmh 30.27 in1025.1 mb 0.00 in0.0 mm 0.00 in0.0 mm 0.00 in0.0 mm
06:24 PM 33.9°F1.1°C 28.4°F-2.0°C 80% 5.0 mph N8.0 kmh N 13.0 mph20.9 kmh 30.27 in1025.1 mb 0.00 in0.0 mm 0.00 in0.0 mm 0.00 in0.0 mm
06:26 PM 33.9°F1.1°C 28.4°F-2.0°C 80% 8.0 mph NNW12.9 kmh NNW 13.0 mph20.9 kmh 30.27 in1025.1 mb 0.00 in0.0 mm 0.00 in0.0 mm 0.00 in0.0 mm
06:28 PM 33.9°F1.1°C 28.4°F-2.0°C 80% 2.0 mph N3.2 kmh N 13.0 mph20.9 kmh 30.27 in1025.1 mb 0.00 in0.0 mm 0.00 in0.0 mm 0.00 in0.0 mm
06:30 PM 33.8°F1.0°C 28.3°F-2.1°C 80% 10.0 mph N16.1 kmh N 10.0 mph16.1 kmh 30.28 in1025.4 mb 0.00 in0.0 mm 0.00 in0.0 mm 0.00 in0.0 mm
06:32 PM 33.7°F0.9°C 28.2°F-2.1°C 80% 10.0 mph N16.1 kmh N 10.0 mph16.1 kmh 30.27 in1025.1 mb 0.00 in0.0 mm 0.00 in0.0 mm 0.00 in0.0 mm
06:34 PM 33.7°F0.9°C 28.2°F-2.1°C 80% 4.0 mph N6.4 kmh N 10.0 mph16.1 kmh 30.28 in1025.4 mb 0.00 in0.0 mm 0.00 in0.0 mm 0.00 in0.0 mm
06:36 PM 33.7°F0.9°C 28.2°F-2.1°C 80% 9.0 mph NW14.5 kmh NW 10.0 mph16.1 kmh 30.28 in1025.4 mb 0.00 in0.0 mm 0.00 in0.0 mm 0.00 in0.0 mm
06:38 PM 33.7°F0.9°C 28.2°F-2.1°C 80% 7.0 mph NW11.3 kmh NW 11.0 mph17.7 kmh 30.28 in1025.4 mb 0.00 in0.0 mm 0.00 in0.0 mm 0.00 in0.0 mm
06:40 PM 33.6°F0.9°C 28.1°F-2.2°C 80% 2.0 mph N3.2 kmh N 11.0 mph17.7 kmh 30.28 in1025.4 mb 0.00 in0.0 mm 0.00 in0.0 mm 0.00 in0.0 mm
06:42 PM 33.7°F0.9°C 28.2°F-2.1°C 80% 5.0 mph NW8.0 kmh NW 11.0 mph17.7 kmh 30.28 in1025.4 mb 0.00 in0.0 mm 0.00 in0.0 mm 0.00 in0.0 mm
06:44 PM 33.7°F0.9°C 28.2°F-2.1°C 80% 6.0 mph NNW9.7 kmh NNW 11.0 mph17.7 kmh 30.29 in1025.7 mb 0.00 in0.0 mm 0.00 in0.0 mm 0.00 in0.0 mm
06:46 PM 33.7°F0.9°C 28.2°F-2.1°C 80% 5.0 mph NNW8.0 kmh NNW 11.0 mph17.7 kmh 30.28 in1025.4 mb 0.00 in0.0 mm 0.00 in0.0 mm 0.00 in0.0 mm
06:48 PM 33.6°F0.9°C 28.1°F-2.2°C 80% 8.0 mph NW12.9 kmh NW 11.0 mph17.7 kmh 30.28 in1025.4 mb 0.00 in0.0 mm 0.00 in0.0 mm 0.00 in0.0 mm
06:50 PM 33.6°F0.9°C 28.1°F-2.2°C 80% 6.0 mph N9.7 kmh N 11.0 mph17.7 kmh 30.28 in1025.4 mb 0.00 in0.0 mm 0.00 in0.0 mm 0.00 in0.0 mm
06:52 PM 33.6°F0.9°C 28.1°F-2.2°C 80% 6.0 mph NNW9.7 kmh NNW 11.0 mph17.7 kmh 30.28 in1025.4 mb 0.00 in0.0 mm 0.00 in0.0 mm 0.00 in0.0 mm
06:54 PM 33.6°F0.9°C 28.1°F-2.2°C 80% 5.0 mph N8.0 kmh N 11.0 mph17.7 kmh 30.28 in1025.4 mb 0.00 in0.0 mm 0.00 in0.0 mm 0.00 in0.0 mm
06:56 PM 33.6°F0.9°C 28.1°F-2.2°C 80% 6.0 mph NNW9.7 kmh NNW 11.0 mph17.7 kmh 30.28 in1025.4 mb 0.00 in0.0 mm 0.00 in0.0 mm 0.00 in0.0 mm
06:58 PM 33.6°F0.9°C 28.1°F-2.2°C 80% 8.0 mph NNW12.9 kmh NNW 11.0 mph17.7 kmh 30.28 in1025.4 mb 0.00 in0.0 mm 0.00 in0.0 mm 0.00 in0.0 mm
07:00 PM 33.6°F0.9°C 28.1°F-2.2°C 80% 2.0 mph NNW3.2 kmh NNW 11.0 mph17.7 kmh 30.29 in1025.7 mb 0.00 in0.0 mm 0.00 in0.0 mm 0.00 in0.0 mm
07:02 PM 33.6°F0.9°C 28.1°F-2.2°C 80% 6.0 mph NNW9.7 kmh NNW 10.0 mph16.1 kmh 30.28 in1025.4 mb 0.00 in0.0 mm 0.00 in0.0 mm 0.00 in0.0 mm
07:04 PM 33.6°F0.9°C 28.1°F-2.2°C 80% 6.0 mph NW9.7 kmh NW 10.0 mph16.1 kmh 30.28 in1025.4 mb 0.00 in0.0 mm 0.00 in0.0 mm 0.00 in0.0 mm
07:06 PM 33.6°F0.9°C 28.1°F-2.2°C 80% 5.0 mph NW8.0 kmh NW 10.0 mph16.1 kmh 30.28 in1025.4 mb 0.00 in0.0 mm 0.00 in0.0 mm 0.00 in0.0 mm
07:08 PM 33.6°F0.9°C 28.1°F-2.2°C 80% 8.0 mph NNW12.9 kmh NNW 10.0 mph16.1 kmh 30.28 in1025.4 mb 0.00 in0.0 mm 0.00 in0.0 mm 0.00 in0.0 mm
07:10 PM 33.6°F0.9°C 28.1°F-2.2°C 80% 6.0 mph NNW9.7 kmh NNW 12.0 mph19.3 kmh 30.28 in1025.4 mb 0.00 in0.0 mm 0.00 in0.0 mm 0.00 in0.0 mm
07:12 PM 33.5°F0.8°C 28.0°F-2.2°C 80% 8.0 mph NE12.9 kmh NE 13.0 mph20.9 kmh 30.28 in1025.4 mb 0.00 in0.0 mm 0.00 in0.0 mm 0.00 in0.0 mm
07:14 PM 33.5°F0.8°C 28.0°F-2.2°C 80% 9.0 mph NNW14.5 kmh NNW 13.0 mph20.9 kmh 30.28 in1025.4 mb 0.00 in0.0 mm 0.00 in0.0 mm 0.00 in0.0 mm
07:16 PM 33.5°F0.8°C 28.0°F-2.2°C 80% 2.0 mph N3.2 kmh N 13.0 mph20.9 kmh 30.28 in1025.4 mb 0.00 in0.0 mm 0.00 in0.0 mm 0.00 in0.0 mm
07:18 PM 33.4°F0.8°C 27.9°F-2.3°C 80% 6.0 mph N9.7 kmh N 13.0 mph20.9 kmh 30.28 in1025.4 mb 0.00 in0.0 mm 0.00 in0.0 mm 0.00 in0.0 mm
07:20 PM 33.4°F0.8°C 27.9°F-2.3°C 80% 5.0 mph NW8.0 kmh NW 13.0 mph20.9 kmh 30.28 in1025.4 mb 0.00 in0.0 mm 0.00 in0.0 mm 0.00 in0.0 mm
07:22 PM 33.5°F0.8°C 28.0°F-2.2°C 80% 3.0 mph N4.8 kmh N 13.0 mph20.9 kmh 30.28 in1025.4 mb 0.00 in0.0 mm 0.00 in0.0 mm 0.00 in0.0 mm
07:24 PM 33.4°F0.8°C 27.9°F-2.3°C 80% 6.0 mph NW9.7 kmh NW 13.0 mph20.9 kmh 30.29 in1025.7 mb 0.00 in0.0 mm 0.00 in0.0 mm 0.00 in0.0 mm
07:26 PM 33.5°F0.8°C 28.0°F-2.2°C 80% 6.0 mph N9.7 kmh N 13.0 mph20.9 kmh 30.28 in1025.4 mb 0.00 in0.0 mm 0.00 in0.0 mm 0.00 in0.0 mm
07:28 PM 33.4°F0.8°C 27.9°F-2.3°C 80% 11.0 mph NW17.7 kmh NW 13.0 mph20.9 kmh 30.28 in1025.4 mb 0.00 in0.0 mm 0.00 in0.0 mm 0.00 in0.0 mm
07:30 PM 33.5°F0.8°C 28.0°F-2.2°C 80% 6.0 mph N9.7 kmh N 10.0 mph16.1 kmh 30.28 in1025.4 mb 0.00 in0.0 mm 0.00 in0.0 mm 0.00 in0.0 mm
07:32 PM 33.4°F0.8°C 27.9°F-2.3°C 80% 4.0 mph NNW6.4 kmh NNW 12.0 mph19.3 kmh 30.28 in1025.4 mb 0.00 in0.0 mm 0.00 in0.0 mm 0.00 in0.0 mm
07:34 PM 33.4°F0.8°C 27.9°F-2.3°C 80% 6.0 mph NNW9.7 kmh NNW 12.0 mph19.3 kmh 30.28 in1025.4 mb 0.00 in0.0 mm 0.00 in0.0 mm 0.00 in0.0 mm
07:36 PM 33.4°F0.8°C 27.9°F-2.3°C 80% 9.0 mph NNW14.5 kmh NNW 13.0 mph20.9 kmh 30.28 in1025.4 mb 0.00 in0.0 mm 0.00 in0.0 mm 0.00 in0.0 mm
07:38 PM 33.3°F0.7°C 27.8°F-2.3°C 80% 11.0 mph N17.7 kmh N 17.0 mph27.4 kmh 30.27 in1025.1 mb 0.00 in0.0 mm 0.00 in0.0 mm 0.00 in0.0 mm
07:40 PM 33.3°F0.7°C 27.8°F-2.3°C 80% 12.0 mph N19.3 kmh N 17.0 mph27.4 kmh 30.27 in1025.1 mb 0.00 in0.0 mm 0.00 in0.0 mm 0.00 in0.0 mm
07:42 PM 33.3°F0.7°C 27.8°F-2.3°C 80% 11.0 mph NW17.7 kmh NW 17.0 mph27.4 kmh 30.28 in1025.4 mb 0.00 in0.0 mm 0.00 in0.0 mm 0.00 in0.0 mm
07:44 PM 33.2°F0.7°C 27.7°F-2.4°C 80% 10.0 mph NW16.1 kmh NW 17.0 mph27.4 kmh 30.28 in1025.4 mb 0.00 in0.0 mm 0.00 in0.0 mm 0.00 in0.0 mm
07:46 PM 33.3°F0.7°C 27.8°F-2.3°C 80% 8.0 mph NNE12.9 kmh NNE 17.0 mph27.4 kmh 30.28 in1025.4 mb 0.00 in0.0 mm 0.00 in0.0 mm 0.00 in0.0 mm
07:48 PM 33.4°F0.8°C 27.9°F-2.3°C 80% 5.0 mph NNE8.0 kmh NNE 17.0 mph27.4 kmh 30.28 in1025.4 mb 0.00 in0.0 mm 0.00 in0.0 mm 0.00 in0.0 mm
07:50 PM 33.4°F0.8°C 27.9°F-2.3°C 80% 12.0 mph NNW19.3 kmh NNW 17.0 mph27.4 kmh 30.28 in1025.4 mb 0.00 in0.0 mm 0.00 in0.0 mm 0.00 in0.0 mm
07:52 PM 33.3°F0.7°C 27.8°F-2.3°C 80% 5.0 mph NW8.0 kmh NW 17.0 mph27.4 kmh 30.28 in1025.4 mb 0.00 in0.0 mm 0.00 in0.0 mm 0.00 in0.0 mm
07:54 PM 33.3°F0.7°C 27.8°F-2.3°C 80% 12.0 mph NNW19.3 kmh NNW 17.0 mph27.4 kmh 30.28 in1025.4 mb 0.00 in0.0 mm 0.00 in0.0 mm 0.00 in0.0 mm
07:56 PM 33.4°F0.8°C 27.9°F-2.3°C 80% 5.0 mph N8.0 kmh N 17.0 mph27.4 kmh 30.28 in1025.4 mb 0.00 in0.0 mm 0.00 in0.0 mm 0.00 in0.0 mm
07:58 PM 33.4°F0.8°C 27.9°F-2.3°C 80% 6.0 mph NNW9.7 kmh NNW 17.0 mph27.4 kmh 30.28 in1025.4 mb 0.00 in0.0 mm 0.00 in0.0 mm 0.00 in0.0 mm
08:00 PM 33.3°F0.7°C 27.8°F-2.3°C 80% 9.0 mph N14.5 kmh N 12.0 mph19.3 kmh 30.28 in1025.4 mb 0.00 in0.0 mm 0.00 in0.0 mm 0.00 in0.0 mm
08:02 PM 33.4°F0.8°C 27.9°F-2.3°C 80% 11.0 mph NNW17.7 kmh NNW 12.0 mph19.3 kmh 30.28 in1025.4 mb 0.00 in0.0 mm 0.00 in0.0 mm 0.00 in0.0 mm
08:04 PM 33.4°F0.8°C 27.9°F-2.3°C 80% 6.0 mph N9.7 kmh N 12.0 mph19.3 kmh 30.28 in1025.4 mb 0.00 in0.0 mm 0.00 in0.0 mm 0.00 in0.0 mm
08:06 PM 33.4°F0.8°C 27.9°F-2.3°C 80% 11.0 mph N17.7 kmh N 12.0 mph19.3 kmh 30.28 in1025.4 mb 0.00 in0.0 mm 0.00 in0.0 mm 0.00 in0.0 mm
08:08 PM 33.4°F0.8°C 27.9°F-2.3°C 80% 5.0 mph NNW8.0 kmh NNW 12.0 mph19.3 kmh 30.27 in1025.1 mb 0.00 in0.0 mm 0.00 in0.0 mm 0.00 in0.0 mm
08:10 PM 33.4°F0.8°C 27.9°F-2.3°C 80% 8.0 mph NW12.9 kmh NW 12.0 mph19.3 kmh 30.27 in1025.1 mb 0.00 in0.0 mm 0.00 in0.0 mm 0.00 in0.0 mm
08:12 PM 33.4°F0.8°C 27.9°F-2.3°C 80% 14.0 mph N22.5 kmh N 14.0 mph22.5 kmh 30.27 in1025.1 mb 0.00 in0.0 mm 0.00 in0.0 mm 0.00 in0.0 mm
08:14 PM 33.4°F0.8°C 27.6°F-2.4°C 79% 4.0 mph NNW6.4 kmh NNW 15.0 mph24.1 kmh 30.27 in1025.1 mb 0.00 in0.0 mm 0.00 in0.0 mm 0.00 in0.0 mm
08:16 PM 33.3°F0.7°C 27.8°F-2.3°C 80% 4.0 mph N6.4 kmh N 15.0 mph24.1 kmh 30.27 in1025.1 mb 0.00 in0.0 mm 0.00 in0.0 mm 0.00 in0.0 mm
08:18 PM 33.3°F0.7°C 27.8°F-2.3°C 80% 3.0 mph NNE4.8 kmh NNE 15.0 mph24.1 kmh 30.26 in1024.7 mb 0.00 in0.0 mm 0.00 in0.0 mm 0.00 in0.0 mm
08:20 PM 33.4°F0.8°C 27.6°F-2.4°C 79% 12.0 mph N19.3 kmh N 15.0 mph24.1 kmh 30.27 in1025.1 mb 0.00 in0.0 mm 0.00 in0.0 mm 0.00 in0.0 mm
08:22 PM 33.4°F0.8°C 27.6°F-2.4°C 79% 6.0 mph N9.7 kmh N 18.0 mph29.0 kmh 30.27 in1025.1 mb 0.00 in0.0 mm 0.00 in0.0 mm 0.00 in0.0 mm
08:24 PM 33.3°F0.7°C 27.8°F-2.3°C 80% 1.0 mph NNW1.6 kmh NNW 18.0 mph29.0 kmh 30.27 in1025.1 mb 0.00 in0.0 mm 0.00 in0.0 mm 0.00 in0.0 mm
08:26 PM 33.4°F0.8°C 27.9°F-2.3°C 80% 1.0 mph NNE1.6 kmh NNE 18.0 mph29.0 kmh 30.27 in1025.1 mb 0.00 in0.0 mm 0.00 in0.0 mm 0.00 in0.0 mm
08:28 PM 33.4°F0.8°C 27.9°F-2.3°C 80% 4.0 mph NNW6.4 kmh NNW 18.0 mph29.0 kmh 30.28 in1025.4 mb 0.00 in0.0 mm 0.00 in0.0 mm 0.00 in0.0 mm
08:30 PM 33.4°F0.8°C 27.6°F-2.4°C 79% 12.0 mph NNW19.3 kmh NNW 15.0 mph24.1 kmh 30.27 in1025.1 mb 0.00 in0.0 mm 0.00 in0.0 mm 0.00 in0.0 mm
08:32 PM 33.3°F0.7°C 27.5°F-2.5°C 79% 6.0 mph N9.7 kmh N 15.0 mph24.1 kmh 30.27 in1025.1 mb 0.00 in0.0 mm 0.00 in0.0 mm 0.00 in0.0 mm
08:34 PM 33.3°F0.7°C 27.5°F-2.5°C 79% 3.0 mph N4.8 kmh N 15.0 mph24.1 kmh 30.27 in1025.1 mb 0.00 in0.0 mm 0.00 in0.0 mm 0.00 in0.0 mm
08:36 PM 33.3°F0.7°C 27.5°F-2.5°C 79% 5.0 mph NW8.0 kmh NW 15.0 mph24.1 kmh 30.27 in1025.1 mb 0.00 in0.0 mm 0.00 in0.0 mm 0.00 in0.0 mm
08:38 PM 33.4°F0.8°C 27.9°F-2.3°C 80% 10.0 mph NNW16.1 kmh NNW 15.0 mph24.1 kmh 30.28 in1025.4 mb 0.00 in0.0 mm 0.00 in0.0 mm 0.00 in0.0 mm
08:40 PM 33.4°F0.8°C 27.9°F-2.3°C 80% 3.0 mph N4.8 kmh N 15.0 mph24.1 kmh 30.28 in1025.4 mb 0.00 in0.0 mm 0.00 in0.0 mm 0.00 in0.0 mm
08:42 PM 33.4°F0.8°C 27.6°F-2.4°C 79% 10.0 mph N16.1 kmh N 15.0 mph24.1 kmh 30.28 in1025.4 mb 0.00 in0.0 mm 0.00 in0.0 mm 0.00 in0.0 mm
08:44 PM 33.4°F0.8°C 27.6°F-2.4°C 79% 8.0 mph NNW12.9 kmh NNW 15.0 mph24.1 kmh 30.28 in1025.4 mb 0.00 in0.0 mm 0.00 in0.0 mm 0.00 in0.0 mm
08:46 PM 33.4°F0.8°C 27.6°F-2.4°C 79% 9.0 mph NW14.5 kmh NW 15.0 mph24.1 kmh 30.28 in1025.4 mb 0.00 in0.0 mm 0.00 in0.0 mm 0.00 in0.0 mm
08:48 PM 33.4°F0.8°C 27.6°F-2.4°C 79% 6.0 mph NNW9.7 kmh NNW 15.0 mph24.1 kmh 30.28 in1025.4 mb 0.00 in0.0 mm 0.00 in0.0 mm 0.00 in0.0 mm
08:50 PM 33.4°F0.8°C 27.6°F-2.4°C 79% 9.0 mph NNW14.5 kmh NNW 15.0 mph24.1 kmh 30.28 in1025.4 mb 0.00 in0.0 mm 0.00 in0.0 mm 0.00 in0.0 mm
08:52 PM 33.4°F0.8°C 27.6°F-2.4°C 79% 12.0 mph NNW19.3 kmh NNW 15.0 mph24.1 kmh 30.28 in1025.4 mb 0.00 in0.0 mm 0.00 in0.0 mm 0.00 in0.0 mm
08:54 PM 33.4°F0.8°C 27.6°F-2.4°C 79% 10.0 mph NNW16.1 kmh NNW 15.0 mph24.1 kmh 30.28 in1025.4 mb 0.00 in0.0 mm 0.00 in0.0 mm 0.00 in0.0 mm
08:56 PM 33.4°F0.8°C 27.6°F-2.4°C 79% 9.0 mph NNW14.5 kmh NNW 15.0 mph24.1 kmh 30.28 in1025.4 mb 0.00 in0.0 mm 0.00 in0.0 mm 0.00 in0.0 mm
08:58 PM 33.4°F0.8°C 27.6°F-2.4°C 79% 4.0 mph N6.4 kmh N 15.0 mph24.1 kmh 30.28 in1025.4 mb 0.00 in0.0 mm 0.00 in0.0 mm 0.00 in0.0 mm
09:00 PM 33.4°F0.8°C 27.6°F-2.4°C 79% 11.0 mph N17.7 kmh N 15.0 mph24.1 kmh 30.28 in1025.4 mb 0.00 in0.0 mm 0.00 in0.0 mm 0.00 in0.0 mm
09:02 PM 33.5°F0.8°C 27.7°F-2.4°C 79% 4.0 mph N6.4 kmh N 11.0 mph17.7 kmh 30.28 in1025.4 mb 0.00 in0.0 mm 0.00 in0.0 mm 0.00 in0.0 mm
09:04 PM 33.4°F0.8°C 27.6°F-2.4°C 79% 9.0 mph NW14.5 kmh NW 14.0 mph22.5 kmh 30.29 in1025.7 mb 0.00 in0.0 mm 0.00 in0.0 mm 0.00 in0.0 mm
09:06 PM 33.5°F0.8°C 27.7°F-2.4°C 79% 3.0 mph NW4.8 kmh NW 14.0 mph22.5 kmh 30.29 in1025.7 mb 0.00 in0.0 mm 0.00 in0.0 mm 0.00 in0.0 mm
09:08 PM 33.5°F0.8°C 27.7°F-2.4°C 79% 4.0 mph N6.4 kmh N 14.0 mph22.5 kmh 30.29 in1025.7 mb 0.00 in0.0 mm 0.00 in0.0 mm 0.00 in0.0 mm
09:10 PM 33.5°F0.8°C 27.7°F-2.4°C 79% 12.0 mph NNW19.3 kmh NNW 14.0 mph22.5 kmh 30.28 in1025.4 mb 0.00 in0.0 mm 0.00 in0.0 mm 0.00 in0.0 mm
09:12 PM 33.4°F0.8°C 27.6°F-2.4°C 79% 6.0 mph N9.7 kmh N 14.0 mph22.5 kmh 30.28 in1025.4 mb 0.00 in0.0 mm 0.00 in0.0 mm 0.00 in0.0 mm
09:14 PM 33.4°F0.8°C 27.6°F-2.4°C 79% 5.0 mph NE8.0 kmh NE 14.0 mph22.5 kmh 30.28 in1025.4 mb 0.00 in0.0 mm 0.00 in0.0 mm 0.00 in0.0 mm
09:16 PM 33.5°F0.8°C 27.7°F-2.4°C 79% 6.0 mph NNW9.7 kmh NNW 14.0 mph22.5 kmh 30.28 in1025.4 mb 0.00 in0.0 mm 0.00 in0.0 mm 0.00 in0.0 mm
09:18 PM 33.5°F0.8°C 27.7°F-2.4°C 79% 2.0 mph N3.2 kmh N 14.0 mph22.5 kmh 30.28 in1025.4 mb 0.00 in0.0 mm 0.00 in0.0 mm 0.00 in0.0 mm
09:20 PM 33.5°F0.8°C 27.7°F-2.4°C 79% 4.0 mph NNE6.4 kmh NNE 14.0 mph22.5 kmh 30.28 in1025.4 mb 0.00 in0.0 mm 0.00 in0.0 mm 0.00 in0.0 mm
09:22 PM 33.5°F0.8°C 27.4°F-2.6°C 78% 6.0 mph NNE9.7 kmh NNE 14.0 mph22.5 kmh 30.28 in1025.4 mb 0.00 in0.0 mm 0.00 in0.0 mm 0.00 in0.0 mm
09:24 PM 33.5°F0.8°C 27.7°F-2.4°C 79% 5.0 mph N8.0 kmh N 14.0 mph22.5 kmh 30.28 in1025.4 mb 0.00 in0.0 mm 0.00 in0.0 mm 0.00 in0.0 mm
09:26 PM 33.5°F0.8°C 27.7°F-2.4°C 79% 11.0 mph NNW17.7 kmh NNW 14.0 mph22.5 kmh 30.28 in1025.4 mb 0.00 in0.0 mm 0.00 in0.0 mm 0.00 in0.0 mm
09:28 PM 33.5°F0.8°C 27.4°F-2.6°C 78% 4.0 mph NNE6.4 kmh NNE 14.0 mph22.5 kmh 30.28 in1025.4 mb 0.00 in0.0 mm 0.00 in0.0 mm 0.00 in0.0 mm
09:30 PM 33.4°F0.8°C 27.6°F-2.4°C 79% 8.0 mph NNE12.9 kmh NNE 14.0 mph22.5 kmh 30.28 in1025.4 mb 0.00 in0.0 mm 0.00 in0.0 mm 0.00 in0.0 mm
09:32 PM 33.5°F0.8°C 27.7°F-2.4°C 79% 8.0 mph NNW12.9 kmh NNW 10.0 mph16.1 kmh 30.28 in1025.4 mb 0.00 in0.0 mm 0.00 in0.0 mm 0.00 in0.0 mm
09:34 PM 33.5°F0.8°C 27.7°F-2.4°C 79% 6.0 mph NW9.7 kmh NW 10.0 mph16.1 kmh 30.28 in1025.4 mb 0.00 in0.0 mm 0.00 in0.0 mm 0.00 in0.0 mm
09:36 PM 33.5°F0.8°C 27.7°F-2.4°C 79% 5.0 mph NNE8.0 kmh NNE 10.0 mph16.1 kmh 30.28 in1025.4 mb 0.00 in0.0 mm 0.00 in0.0 mm 0.00 in0.0 mm
09:38 PM 33.5°F0.8°C 27.7°F-2.4°C 79% 8.0 mph N12.9 kmh N 10.0 mph16.1 kmh 30.28 in1025.4 mb 0.00 in0.0 mm 0.00 in0.0 mm 0.00 in0.0 mm
09:40 PM 33.5°F0.8°C 27.4°F-2.6°C 78% 10.0 mph N16.1 kmh N 13.0 mph20.9 kmh 30.28 in1025.4 mb 0.00 in0.0 mm 0.00 in0.0 mm 0.00 in0.0 mm
09:42 PM 33.5°F0.8°C 27.4°F-2.6°C 78% 5.0 mph N8.0 kmh N 13.0 mph20.9 kmh 30.28 in1025.4 mb 0.00 in0.0 mm 0.00 in0.0 mm 0.00 in0.0 mm
09:44 PM 33.5°F0.8°C 27.7°F-2.4°C 79% 10.0 mph NNE16.1 kmh NNE 13.0 mph20.9 kmh 30.28 in1025.4 mb 0.00 in0.0 mm 0.00 in0.0 mm 0.00 in0.0 mm
09:46 PM 33.5°F0.8°C 27.4°F-2.6°C 78% 8.0 mph N12.9 kmh N 13.0 mph20.9 kmh 30.28 in1025.4 mb 0.00 in0.0 mm 0.00 in0.0 mm 0.00 in0.0 mm
09:48 PM 33.5°F0.8°C 27.4°F-2.6°C 78% 4.0 mph N6.4 kmh N 13.0 mph20.9 kmh 30.28 in1025.4 mb 0.00 in0.0 mm 0.00 in0.0 mm 0.00 in0.0 mm
09:50 PM 33.5°F0.8°C 27.7°F-2.4°C 79% 3.0 mph N4.8 kmh N 13.0 mph20.9 kmh 30.28 in1025.4 mb 0.00 in0.0 mm 0.00 in0.0 mm 0.00 in0.0 mm
09:52 PM 33.5°F0.8°C 27.4°F-2.6°C 78% 5.0 mph NW8.0 kmh NW 13.0 mph20.9 kmh 30.28 in1025.4 mb 0.00 in0.0 mm 0.00 in0.0 mm 0.00 in0.0 mm
09:54 PM 33.5°F0.8°C 27.7°F-2.4°C 79% 6.0 mph NNW9.7 kmh NNW 13.0 mph20.9 kmh 30.28 in1025.4 mb 0.00 in0.0 mm 0.00 in0.0 mm 0.00 in0.0 mm
09:56 PM 33.5°F0.8°C 27.7°F-2.4°C 79% 5.0 mph NW8.0 kmh NW 13.0 mph20.9 kmh 30.28 in1025.4 mb 0.00 in0.0 mm 0.00 in0.0 mm 0.00 in0.0 mm
09:58 PM 33.5°F0.8°C 27.7°F-2.4°C 79% 5.0 mph N8.0 kmh N 13.0 mph20.9 kmh 30.27 in1025.1 mb 0.00 in0.0 mm 0.00 in0.0 mm 0.00 in0.0 mm
10:00 PM 33.5°F0.8°C 27.7°F-2.4°C 79% 5.0 mph N8.0 kmh N 13.0 mph20.9 kmh 30.27 in1025.1 mb 0.00 in0.0 mm 0.00 in0.0 mm 0.00 in0.0 mm
10:02 PM 33.4°F0.8°C 27.6°F-2.4°C 79% 9.0 mph N14.5 kmh N 9.0 mph14.5 kmh 30.27 in1025.1 mb 0.00 in0.0 mm 0.00 in0.0 mm 0.00 in0.0 mm
10:04 PM 33.4°F0.8°C 27.6°F-2.4°C 79% 11.0 mph NNW17.7 kmh NNW 11.0 mph17.7 kmh 30.27 in1025.1 mb 0.00 in0.0 mm 0.00 in0.0 mm 0.00 in0.0 mm
10:06 PM 33.4°F0.8°C 27.6°F-2.4°C 79% 6.0 mph NNW9.7 kmh NNW 13.0 mph20.9 kmh 30.28 in1025.4 mb 0.00 in0.0 mm 0.00 in0.0 mm 0.00 in0.0 mm
10:08 PM 33.4°F0.8°C 27.6°F-2.4°C 79% 6.0 mph NW9.7 kmh NW 13.0 mph20.9 kmh 30.28 in1025.4 mb 0.00 in0.0 mm 0.00 in0.0 mm 0.00 in0.0 mm
10:10 PM 33.4°F0.8°C 27.6°F-2.4°C 79% 11.0 mph NNW17.7 kmh NNW 14.0 mph22.5 kmh 30.28 in1025.4 mb 0.00 in0.0 mm 0.00 in0.0 mm 0.00 in0.0 mm
10:12 PM 33.4°F0.8°C 27.6°F-2.4°C 79% 8.0 mph NNW12.9 kmh NNW 14.0 mph22.5 kmh 30.28 in1025.4 mb 0.00 in0.0 mm 0.00 in0.0 mm 0.00 in0.0 mm
10:14 PM 33.4°F0.8°C 27.6°F-2.4°C 79% 8.0 mph NNE12.9 kmh NNE 14.0 mph22.5 kmh 30.28 in1025.4 mb 0.00 in0.0 mm 0.00 in0.0 mm 0.00 in0.0 mm
10:16 PM 33.4°F0.8°C 27.6°F-2.4°C 79% 11.0 mph NW17.7 kmh NW 16.0 mph25.7 kmh 30.27 in1025.1 mb 0.00 in0.0 mm 0.00 in0.0 mm 0.00 in0.0 mm
10:18 PM 33.3°F0.7°C 27.5°F-2.5°C 79% 6.0 mph NW9.7 kmh NW 16.0 mph25.7 kmh 30.28 in1025.4 mb 0.00 in0.0 mm 0.00 in0.0 mm 0.00 in0.0 mm
10:20 PM 33.3°F0.7°C 27.5°F-2.5°C 79% 5.0 mph NNW8.0 kmh NNW 16.0 mph25.7 kmh 30.28 in1025.4 mb 0.00 in0.0 mm 0.00 in0.0 mm 0.00 in0.0 mm
10:22 PM 33.3°F0.7°C 27.5°F-2.5°C 79% 8.0 mph NW12.9 kmh NW 16.0 mph25.7 kmh 30.27 in1025.1 mb 0.00 in0.0 mm 0.00 in0.0 mm 0.00 in0.0 mm
10:24 PM 33.3°F0.7°C 27.5°F-2.5°C 79% 9.0 mph NW14.5 kmh NW 16.0 mph25.7 kmh 30.27 in1025.1 mb 0.00 in0.0 mm 0.00 in0.0 mm 0.00 in0.0 mm
10:26 PM 33.2°F0.7°C 27.4°F-2.6°C 79% 6.0 mph NNW9.7 kmh NNW 16.0 mph25.7 kmh 30.27 in1025.1 mb 0.00 in0.0 mm 0.00 in0.0 mm 0.00 in0.0 mm
10:28 PM 33.2°F0.7°C 27.4°F-2.6°C 79% 9.0 mph NNW14.5 kmh NNW 16.0 mph25.7 kmh 30.27 in1025.1 mb 0.00 in0.0 mm 0.00 in0.0 mm 0.00 in0.0 mm
10:30 PM 33.3°F0.7°C 27.5°F-2.5°C 79% 3.0 mph NNW4.8 kmh NNW 3.0 mph4.8 kmh 30.27 in1025.1 mb 0.00 in0.0 mm 0.00 in0.0 mm 0.00 in0.0 mm
10:32 PM 33.2°F0.7°C 27.4°F-2.6°C 79% 11.0 mph NW17.7 kmh NW 11.0 mph17.7 kmh 30.27 in1025.1 mb 0.00 in0.0 mm 0.00 in0.0 mm 0.00 in0.0 mm
10:34 PM 33.2°F0.7°C 27.4°F-2.6°C 79% 2.0 mph NW3.2 kmh NW 11.0 mph17.7 kmh 30.27 in1025.1 mb 0.00 in0.0 mm 0.00 in0.0 mm 0.00 in0.0 mm
10:36 PM 33.2°F0.7°C 27.4°F-2.6°C 79% 3.0 mph N4.8 kmh N 11.0 mph17.7 kmh 30.26 in1024.7 mb 0.00 in0.0 mm 0.00 in0.0 mm 0.00 in0.0 mm
10:38 PM 33.2°F0.7°C 27.4°F-2.6°C 79% Calm Calm 11.0 mph17.7 kmh 30.26 in1024.7 mb 0.00 in0.0 mm 0.00 in0.0 mm 0.00 in0.0 mm
10:40 PM 33.3°F0.7°C 27.5°F-2.5°C 79% 13.0 mph NNW20.9 kmh NNW 13.0 mph20.9 kmh 30.26 in1024.7 mb 0.00 in0.0 mm 0.00 in0.0 mm 0.00 in0.0 mm
10:42 PM 33.2°F0.7°C 27.4°F-2.6°C 79% 5.0 mph N8.0 kmh N 13.0 mph20.9 kmh 30.25 in1024.4 mb 0.00 in0.0 mm 0.00 in0.0 mm 0.00 in0.0 mm
10:44 PM 33.2°F0.7°C 27.4°F-2.6°C 79% 13.0 mph NNW20.9 kmh NNW 14.0 mph22.5 kmh 30.25 in1024.4 mb 0.00 in0.0 mm 0.00 in0.0 mm 0.00 in0.0 mm
10:46 PM 33.1°F0.6°C 27.3°F-2.6°C 79% 10.0 mph NW16.1 kmh NW 14.0 mph22.5 kmh 30.25 in1024.4 mb 0.00 in0.0 mm 0.00 in0.0 mm 0.00 in0.0 mm
10:48 PM 33.1°F0.6°C 27.3°F-2.6°C 79% 6.0 mph NW9.7 kmh NW 14.0 mph22.5 kmh 30.25 in1024.4 mb 0.00 in0.0 mm 0.00 in0.0 mm 0.00 in0.0 mm
10:50 PM 33.2°F0.7°C 27.4°F-2.6°C 79% 10.0 mph NW16.1 kmh NW 14.0 mph22.5 kmh 30.25 in1024.4 mb 0.00 in0.0 mm 0.00 in0.0 mm 0.00 in0.0 mm
10:52 PM 33.2°F0.7°C 27.4°F-2.6°C 79% 10.0 mph NNW16.1 kmh NNW 14.0 mph22.5 kmh 30.26 in1024.7 mb 0.00 in0.0 mm 0.00 in0.0 mm 0.00 in0.0 mm
10:54 PM 33.1°F0.6°C 27.3°F-2.6°C 79% 6.0 mph NW9.7 kmh NW 14.0 mph22.5 kmh 30.26 in1024.7 mb 0.00 in0.0 mm 0.00 in0.0 mm 0.00 in0.0 mm
10:56 PM 33.1°F0.6°C 27.3°F-2.6°C 79% 5.0 mph N8.0 kmh N 14.0 mph22.5 kmh 30.26 in1024.7 mb 0.00 in0.0 mm 0.00 in0.0 mm 0.00 in0.0 mm
10:58 PM 33.1°F0.6°C 27.3°F-2.6°C 79% 9.0 mph NW14.5 kmh NW 14.0 mph22.5 kmh 30.26 in1024.7 mb 0.00 in0.0 mm 0.00 in0.0 mm 0.00 in0.0 mm
11:00 PM 33.1°F0.6°C 27.3°F-2.6°C 79% 8.0 mph NNW12.9 kmh NNW 8.0 mph12.9 kmh 30.26 in1024.7 mb 0.00 in0.0 mm 0.00 in0.0 mm 0.00 in0.0 mm
11:02 PM 33.0°F0.6°C 27.2°F-2.7°C 79% 9.0 mph NW14.5 kmh NW 11.0 mph17.7 kmh 30.26 in1024.7 mb 0.00 in0.0 mm 0.00 in0.0 mm 0.00 in0.0 mm
11:04 PM 33.0°F0.6°C 27.2°F-2.7°C 79% 6.0 mph N9.7 kmh N 12.0 mph19.3 kmh 30.25 in1024.4 mb 0.00 in0.0 mm 0.00 in0.0 mm 0.00 in0.0 mm
11:06 PM 33.0°F0.6°C 27.2°F-2.7°C 79% 9.0 mph N14.5 kmh N 12.0 mph19.3 kmh 30.26 in1024.7 mb 0.00 in0.0 mm 0.00 in0.0 mm 0.00 in0.0 mm
11:08 PM 33.0°F0.6°C 27.2°F-2.7°C 79% 14.0 mph NNW22.5 kmh NNW 14.0 mph22.5 kmh 30.25 in1024.4 mb 0.00 in0.0 mm 0.00 in0.0 mm 0.00 in0.0 mm
11:10 PM 33.0°F0.6°C 26.9°F-2.8°C 78% 6.0 mph NW9.7 kmh NW 14.0 mph22.5 kmh 30.25 in1024.4 mb 0.00 in0.0 mm 0.00 in0.0 mm 0.00 in0.0 mm
11:12 PM 32.9°F0.5°C 27.1°F-2.7°C 79% 3.0 mph N4.8 kmh N 14.0 mph22.5 kmh 30.25 in1024.4 mb 0.00 in0.0 mm 0.00 in0.0 mm 0.00 in0.0 mm
11:14 PM 32.9°F0.5°C 26.8°F-2.9°C 78% 10.0 mph NW16.1 kmh NW 14.0 mph22.5 kmh 30.25 in1024.4 mb 0.00 in0.0 mm 0.00 in0.0 mm 0.00 in0.0 mm
11:16 PM 32.9°F0.5°C 27.1°F-2.7°C 79% 6.0 mph NW9.7 kmh NW 14.0 mph22.5 kmh 30.25 in1024.4 mb 0.00 in0.0 mm 0.00 in0.0 mm 0.00 in0.0 mm
11:18 PM 32.9°F0.5°C 27.1°F-2.7°C 79% 10.0 mph NNW16.1 kmh NNW 14.0 mph22.5 kmh 30.25 in1024.4 mb 0.00 in0.0 mm 0.00 in0.0 mm 0.00 in0.0 mm
11:20 PM 33.0°F0.6°C 27.2°F-2.7°C 79% 6.0 mph NW9.7 kmh NW 14.0 mph22.5 kmh 30.25 in1024.4 mb 0.00 in0.0 mm 0.00 in0.0 mm 0.00 in0.0 mm
11:22 PM 33.0°F0.6°C 27.2°F-2.7°C 79% 12.0 mph NNW19.3 kmh NNW 14.0 mph22.5 kmh 30.25 in1024.4 mb 0.00 in0.0 mm 0.00 in0.0 mm 0.00 in0.0 mm
11:24 PM 32.9°F0.5°C 26.8°F-2.9°C 78% 7.0 mph N11.3 kmh N 14.0 mph22.5 kmh 30.25 in1024.4 mb 0.00 in0.0 mm 0.00 in0.0 mm 0.00 in0.0 mm
11:26 PM 32.9°F0.5°C 26.8°F-2.9°C 78% 10.0 mph NNW16.1 kmh NNW 14.0 mph22.5 kmh 30.25 in1024.4 mb 0.00 in0.0 mm 0.00 in0.0 mm 0.00 in0.0 mm
11:28 PM 33.0°F0.6°C 26.9°F-2.8°C 78% 12.0 mph N19.3 kmh N 14.0 mph22.5 kmh 30.26 in1024.7 mb 0.00 in0.0 mm 0.00 in0.0 mm 0.00 in0.0 mm
11:30 PM 32.9°F0.5°C 26.8°F-2.9°C 78% 8.0 mph N12.9 kmh N 14.0 mph22.5 kmh 30.25 in1024.4 mb 0.00 in0.0 mm 0.00 in0.0 mm 0.00 in0.0 mm
11:32 PM 32.9°F0.5°C 27.1°F-2.7°C 79% 5.0 mph N8.0 kmh N 9.0 mph14.5 kmh 30.25 in1024.4 mb 0.00 in0.0 mm 0.00 in0.0 mm 0.00 in0.0 mm
11:34 PM 32.9°F0.5°C 27.1°F-2.7°C 79% 10.0 mph NW16.1 kmh NW 12.0 mph19.3 kmh 30.25 in1024.4 mb 0.00 in0.0 mm 0.00 in0.0 mm 0.00 in0.0 mm
11:36 PM 32.9°F0.5°C 26.8°F-2.9°C 78% 8.0 mph N12.9 kmh N 13.0 mph20.9 kmh 30.26 in1024.7 mb 0.00 in0.0 mm 0.00 in0.0 mm 0.00 in0.0 mm
11:38 PM 32.9°F0.5°C 26.8°F-2.9°C 78% 9.0 mph NW14.5 kmh NW 15.0 mph24.1 kmh 30.26 in1024.7 mb 0.00 in0.0 mm 0.00 in0.0 mm 0.00 in0.0 mm
11:40 PM 32.9°F0.5°C 26.8°F-2.9°C 78% 12.0 mph NNW19.3 kmh NNW 15.0 mph24.1 kmh 30.26 in1024.7 mb 0.00 in0.0 mm 0.00 in0.0 mm 0.00 in0.0 mm
11:42 PM 32.9°F0.5°C 26.8°F-2.9°C 78% 9.0 mph N14.5 kmh N 15.0 mph24.1 kmh 30.26 in1024.7 mb 0.00 in0.0 mm 0.00 in0.0 mm 0.00 in0.0 mm
11:44 PM 32.8°F0.4°C 26.7°F-2.9°C 78% 5.0 mph N8.0 kmh N 15.0 mph24.1 kmh 30.26 in1024.7 mb 0.00 in0.0 mm 0.00 in0.0 mm 0.00 in0.0 mm
11:46 PM 32.8°F0.4°C 26.7°F-2.9°C 78% 4.0 mph NW6.4 kmh NW 15.0 mph24.1 kmh 30.26 in1024.7 mb 0.00 in0.0 mm 0.00 in0.0 mm 0.00 in0.0 mm
11:48 PM 32.8°F0.4°C 26.7°F-2.9°C 78% 3.0 mph NNW4.8 kmh NNW 15.0 mph24.1 kmh 30.27 in1025.1 mb 0.00 in0.0 mm 0.00 in0.0 mm 0.00 in0.0 mm
11:50 PM 32.8°F0.4°C 26.7°F-2.9°C 78% 5.0 mph N8.0 kmh N 15.0 mph24.1 kmh 30.27 in1025.1 mb 0.00 in0.0 mm 0.00 in0.0 mm 0.00 in0.0 mm
11:52 PM 32.8°F0.4°C 26.7°F-2.9°C 78% 6.0 mph N9.7 kmh N 15.0 mph24.1 kmh 30.27 in1025.1 mb 0.00 in0.0 mm 0.00 in0.0 mm 0.00 in0.0 mm
11:54 PM 32.9°F0.5°C 26.8°F-2.9°C 78% 4.0 mph N6.4 kmh N 15.0 mph24.1 kmh 30.27 in1025.1 mb 0.00 in0.0 mm 0.00 in0.0 mm 0.00 in0.0 mm
11:56 PM 32.9°F0.5°C 26.8°F-2.9°C 78% 5.0 mph NW8.0 kmh NW 15.0 mph24.1 kmh 30.27 in1025.1 mb 0.00 in0.0 mm 0.00 in0.0 mm 0.00 in0.0 mm
11:58 PM 32.9°F0.5°C 26.8°F-2.9°C 78% 2.0 mph NNW3.2 kmh NNW 15.0 mph24.1 kmh 30.27 in1025.1 mb 0.00 in0.0 mm 0.00 in0.0 mm 0.00 in0.0 mm